<?xml version="1.0" encoding="UTF-8" standalone="no" ?>
<gpx xmlns="http://www.topografix.com/GPX/1/1" xmlns:xsi="http://www.w3.org/2001/XMLSchema-instance" xsi:schemaLocation="http://www.topografix.com/GPX/1/1 http://www.topografix.com/GPX/1/1/gpx.xsd" version="1.1" creator="VisuGPX - https://www.visugpx.com">
  <metadata>
    <name>Pipay</name>
    <desc><![CDATA[

]]></desc>
  </metadata>
  <trk>
    <name><![CDATA[Pipay]]></name>
    <extensions>
      <line xmlns="http://www.topografix.com/GPX/gpx_style/0/2">
        <color>0000FF</color>
        <width>4</width>
      </line>
    </extensions>
    <trkseg>
      <trkpt lat="45.26528" lon="6.01531">
        <ele>1570.4549560547</ele>
        <time>2017-01-06T08:34:27Z</time>
      </trkpt>
      <trkpt lat="45.26534" lon="6.01537">
        <ele>1570.4549560547</ele>
        <time>2017-01-06T08:34:34Z</time>
      </trkpt>
      <trkpt lat="45.26541" lon="6.01544">
        <ele>1570.4549560547</ele>
        <time>2017-01-06T08:34:39Z</time>
      </trkpt>
      <trkpt lat="45.26547" lon="6.0155">
        <ele>1569.4549560547</ele>
        <time>2017-01-06T08:34:46Z</time>
      </trkpt>
      <trkpt lat="45.26553" lon="6.01557">
        <ele>1571.4549560547</ele>
        <time>2017-01-06T08:34:54Z</time>
      </trkpt>
      <trkpt lat="45.2656" lon="6.01563">
        <ele>1567.4549560547</ele>
        <time>2017-01-06T08:35:01Z</time>
      </trkpt>
      <trkpt lat="45.26567" lon="6.0157">
        <ele>1568.4549560547</ele>
        <time>2017-01-06T08:35:06Z</time>
      </trkpt>
      <trkpt lat="45.26573" lon="6.01575">
        <ele>1568.4549560547</ele>
        <time>2017-01-06T08:35:11Z</time>
      </trkpt>
      <trkpt lat="45.26581" lon="6.01581">
        <ele>1567.4549560547</ele>
        <time>2017-01-06T08:35:18Z</time>
      </trkpt>
      <trkpt lat="45.26585" lon="6.01592">
        <ele>1569.4549560547</ele>
        <time>2017-01-06T08:35:24Z</time>
      </trkpt>
      <trkpt lat="45.26592" lon="6.01596">
        <ele>1569.4549560547</ele>
        <time>2017-01-06T08:35:40Z</time>
      </trkpt>
      <trkpt lat="45.2661" lon="6.01595">
        <ele>1570.4549560547</ele>
        <time>2017-01-06T08:35:53Z</time>
      </trkpt>
      <trkpt lat="45.26617" lon="6.01593">
        <ele>1571.4549560547</ele>
        <time>2017-01-06T08:35:59Z</time>
      </trkpt>
      <trkpt lat="45.26624" lon="6.0159">
        <ele>1571.4549560547</ele>
        <time>2017-01-06T08:36:06Z</time>
      </trkpt>
      <trkpt lat="45.26631" lon="6.01586">
        <ele>1567.4549560547</ele>
        <time>2017-01-06T08:36:12Z</time>
      </trkpt>
      <trkpt lat="45.26637" lon="6.01577">
        <ele>1568.4549560547</ele>
        <time>2017-01-06T08:36:17Z</time>
      </trkpt>
      <trkpt lat="45.26643" lon="6.01571">
        <ele>1570.4549560547</ele>
        <time>2017-01-06T08:36:24Z</time>
      </trkpt>
      <trkpt lat="45.2665" lon="6.01566">
        <ele>1572.4549560547</ele>
        <time>2017-01-06T08:36:32Z</time>
      </trkpt>
      <trkpt lat="45.26657" lon="6.01561">
        <ele>1572.4549560547</ele>
        <time>2017-01-06T08:36:38Z</time>
      </trkpt>
      <trkpt lat="45.26665" lon="6.01557">
        <ele>1570.4549560547</ele>
        <time>2017-01-06T08:36:49Z</time>
      </trkpt>
      <trkpt lat="45.26673" lon="6.01558">
        <ele>1574.4549560547</ele>
        <time>2017-01-06T08:36:59Z</time>
      </trkpt>
      <trkpt lat="45.2668" lon="6.01563">
        <ele>1576.4549560547</ele>
        <time>2017-01-06T08:37:09Z</time>
      </trkpt>
      <trkpt lat="45.26687" lon="6.01565">
        <ele>1579.4560546875</ele>
        <time>2017-01-06T08:37:18Z</time>
      </trkpt>
      <trkpt lat="45.26694" lon="6.01567">
        <ele>1584.4560546875</ele>
        <time>2017-01-06T08:37:26Z</time>
      </trkpt>
      <trkpt lat="45.26701" lon="6.01569">
        <ele>1589.4560546875</ele>
        <time>2017-01-06T08:37:39Z</time>
      </trkpt>
      <trkpt lat="45.26709" lon="6.0157">
        <ele>1591.4560546875</ele>
        <time>2017-01-06T08:37:49Z</time>
      </trkpt>
      <trkpt lat="45.26717" lon="6.0157">
        <ele>1594.4560546875</ele>
        <time>2017-01-06T08:38:00Z</time>
      </trkpt>
      <trkpt lat="45.26724" lon="6.01566">
        <ele>1592.4560546875</ele>
        <time>2017-01-06T08:38:07Z</time>
      </trkpt>
      <trkpt lat="45.26732" lon="6.01566">
        <ele>1591.4560546875</ele>
        <time>2017-01-06T08:38:13Z</time>
      </trkpt>
      <trkpt lat="45.26738" lon="6.01571">
        <ele>1599.4560546875</ele>
        <time>2017-01-06T08:38:25Z</time>
      </trkpt>
      <trkpt lat="45.26745" lon="6.01577">
        <ele>1602.4560546875</ele>
        <time>2017-01-06T08:38:40Z</time>
      </trkpt>
      <trkpt lat="45.26751" lon="6.01583">
        <ele>1601.4560546875</ele>
        <time>2017-01-06T08:38:48Z</time>
      </trkpt>
      <trkpt lat="45.26757" lon="6.0159">
        <ele>1603.4560546875</ele>
        <time>2017-01-06T08:38:55Z</time>
      </trkpt>
      <trkpt lat="45.26763" lon="6.01597">
        <ele>1608.4560546875</ele>
        <time>2017-01-06T08:39:08Z</time>
      </trkpt>
      <trkpt lat="45.26768" lon="6.01607">
        <ele>1611.4560546875</ele>
        <time>2017-01-06T08:39:14Z</time>
      </trkpt>
      <trkpt lat="45.26775" lon="6.01615">
        <ele>1609.4560546875</ele>
        <time>2017-01-06T08:39:21Z</time>
      </trkpt>
      <trkpt lat="45.26778" lon="6.01624">
        <ele>1607.4560546875</ele>
        <time>2017-01-06T08:39:29Z</time>
      </trkpt>
      <trkpt lat="45.26783" lon="6.01632">
        <ele>1608.4560546875</ele>
        <time>2017-01-06T08:39:41Z</time>
      </trkpt>
      <trkpt lat="45.26787" lon="6.01641">
        <ele>1611.4560546875</ele>
        <time>2017-01-06T08:39:51Z</time>
      </trkpt>
      <trkpt lat="45.26791" lon="6.01651">
        <ele>1618.4560546875</ele>
        <time>2017-01-06T08:40:06Z</time>
      </trkpt>
      <trkpt lat="45.26798" lon="6.01661">
        <ele>1620.4560546875</ele>
        <time>2017-01-06T08:40:18Z</time>
      </trkpt>
      <trkpt lat="45.26804" lon="6.01667">
        <ele>1624.4560546875</ele>
        <time>2017-01-06T08:40:27Z</time>
      </trkpt>
      <trkpt lat="45.26811" lon="6.01671">
        <ele>1629.4560546875</ele>
        <time>2017-01-06T08:40:32Z</time>
      </trkpt>
      <trkpt lat="45.26814" lon="6.01683">
        <ele>1631.4560546875</ele>
        <time>2017-01-06T08:40:45Z</time>
      </trkpt>
      <trkpt lat="45.26821" lon="6.01691">
        <ele>1637.4560546875</ele>
        <time>2017-01-06T08:41:02Z</time>
      </trkpt>
      <trkpt lat="45.26826" lon="6.01699">
        <ele>1637.4560546875</ele>
        <time>2017-01-06T08:41:08Z</time>
      </trkpt>
      <trkpt lat="45.26831" lon="6.01708">
        <ele>1639.4560546875</ele>
        <time>2017-01-06T08:41:16Z</time>
      </trkpt>
      <trkpt lat="45.26838" lon="6.01712">
        <ele>1646.4560546875</ele>
        <time>2017-01-06T08:41:29Z</time>
      </trkpt>
      <trkpt lat="45.26845" lon="6.01717">
        <ele>1647.4560546875</ele>
        <time>2017-01-06T08:41:47Z</time>
      </trkpt>
      <trkpt lat="45.26851" lon="6.01723">
        <ele>1647.4560546875</ele>
        <time>2017-01-06T08:41:53Z</time>
      </trkpt>
      <trkpt lat="45.26858" lon="6.01729">
        <ele>1648.4560546875</ele>
        <time>2017-01-06T08:41:59Z</time>
      </trkpt>
      <trkpt lat="45.26864" lon="6.01735">
        <ele>1657.4560546875</ele>
        <time>2017-01-06T08:42:09Z</time>
      </trkpt>
      <trkpt lat="45.2687" lon="6.01742">
        <ele>1655.4560546875</ele>
        <time>2017-01-06T08:42:18Z</time>
      </trkpt>
      <trkpt lat="45.26875" lon="6.01749">
        <ele>1660.4560546875</ele>
        <time>2017-01-06T08:42:27Z</time>
      </trkpt>
      <trkpt lat="45.26874" lon="6.0176">
        <ele>1663.4560546875</ele>
        <time>2017-01-06T08:42:33Z</time>
      </trkpt>
      <trkpt lat="45.2687" lon="6.01768">
        <ele>1667.4560546875</ele>
        <time>2017-01-06T08:42:47Z</time>
      </trkpt>
      <trkpt lat="45.26864" lon="6.01775">
        <ele>1668.4560546875</ele>
        <time>2017-01-06T08:42:54Z</time>
      </trkpt>
      <trkpt lat="45.26857" lon="6.01781">
        <ele>1670.4560546875</ele>
        <time>2017-01-06T08:43:04Z</time>
      </trkpt>
      <trkpt lat="45.26851" lon="6.01787">
        <ele>1675.4560546875</ele>
        <time>2017-01-06T08:43:25Z</time>
      </trkpt>
      <trkpt lat="45.26844" lon="6.01794">
        <ele>1678.4560546875</ele>
        <time>2017-01-06T08:45:04Z</time>
      </trkpt>
      <trkpt lat="45.26837" lon="6.01799">
        <ele>1679.4560546875</ele>
        <time>2017-01-06T08:45:14Z</time>
      </trkpt>
      <trkpt lat="45.2683" lon="6.01804">
        <ele>1680.4560546875</ele>
        <time>2017-01-06T08:45:23Z</time>
      </trkpt>
      <trkpt lat="45.26822" lon="6.01806">
        <ele>1679.4560546875</ele>
        <time>2017-01-06T08:45:32Z</time>
      </trkpt>
      <trkpt lat="45.26814" lon="6.01807">
        <ele>1680.4560546875</ele>
        <time>2017-01-06T08:45:40Z</time>
      </trkpt>
      <trkpt lat="45.26806" lon="6.01807">
        <ele>1680.4560546875</ele>
        <time>2017-01-06T08:45:57Z</time>
      </trkpt>
      <trkpt lat="45.26798" lon="6.01813">
        <ele>1676.4560546875</ele>
        <time>2017-01-06T08:46:04Z</time>
      </trkpt>
      <trkpt lat="45.2679" lon="6.01818">
        <ele>1677.4560546875</ele>
        <time>2017-01-06T08:46:15Z</time>
      </trkpt>
      <trkpt lat="45.26792" lon="6.01828">
        <ele>1682.4560546875</ele>
        <time>2017-01-06T08:46:27Z</time>
      </trkpt>
      <trkpt lat="45.26797" lon="6.01838">
        <ele>1687.4560546875</ele>
        <time>2017-01-06T08:46:39Z</time>
      </trkpt>
      <trkpt lat="45.26803" lon="6.01846">
        <ele>1305.4560546875</ele>
        <time>2017-01-06T08:46:53Z</time>
      </trkpt>
      <trkpt lat="45.26801" lon="6.01856">
        <ele>1697.4560546875</ele>
        <time>2017-01-06T08:47:21Z</time>
      </trkpt>
      <trkpt lat="45.26801" lon="6.01868">
        <ele>1698.4560546875</ele>
        <time>2017-01-06T08:47:36Z</time>
      </trkpt>
      <trkpt lat="45.26796" lon="6.01875">
        <ele>1698.4560546875</ele>
        <time>2017-01-06T08:47:46Z</time>
      </trkpt>
      <trkpt lat="45.26796" lon="6.01886">
        <ele>1702.4560546875</ele>
        <time>2017-01-06T08:47:54Z</time>
      </trkpt>
      <trkpt lat="45.26795" lon="6.01898">
        <ele>1705.4560546875</ele>
        <time>2017-01-06T08:48:01Z</time>
      </trkpt>
      <trkpt lat="45.26789" lon="6.01904">
        <ele>1709.4560546875</ele>
        <time>2017-01-06T08:48:12Z</time>
      </trkpt>
      <trkpt lat="45.26782" lon="6.01907">
        <ele>1714.4560546875</ele>
        <time>2017-01-06T08:50:59Z</time>
      </trkpt>
      <trkpt lat="45.2678" lon="6.01917">
        <ele>1716.4560546875</ele>
        <time>2017-01-06T08:51:25Z</time>
      </trkpt>
      <trkpt lat="45.26779" lon="6.01927">
        <ele>1722.4560546875</ele>
        <time>2017-01-06T08:51:36Z</time>
      </trkpt>
      <trkpt lat="45.26782" lon="6.01939">
        <ele>1723.4560546875</ele>
        <time>2017-01-06T08:51:47Z</time>
      </trkpt>
      <trkpt lat="45.26783" lon="6.01949">
        <ele>1727.4560546875</ele>
        <time>2017-01-06T08:52:07Z</time>
      </trkpt>
      <trkpt lat="45.26782" lon="6.01959">
        <ele>1728.4560546875</ele>
        <time>2017-01-06T08:52:20Z</time>
      </trkpt>
      <trkpt lat="45.26782" lon="6.0197">
        <ele>1734.4560546875</ele>
        <time>2017-01-06T08:52:31Z</time>
      </trkpt>
      <trkpt lat="45.26781" lon="6.01981">
        <ele>1735.4560546875</ele>
        <time>2017-01-06T08:52:37Z</time>
      </trkpt>
      <trkpt lat="45.26779" lon="6.01991">
        <ele>1735.4560546875</ele>
        <time>2017-01-06T08:52:42Z</time>
      </trkpt>
      <trkpt lat="45.2678" lon="6.02001">
        <ele>1734.4560546875</ele>
        <time>2017-01-06T08:52:49Z</time>
      </trkpt>
      <trkpt lat="45.26776" lon="6.02011">
        <ele>1736.4560546875</ele>
        <time>2017-01-06T08:53:02Z</time>
      </trkpt>
      <trkpt lat="45.26774" lon="6.02021">
        <ele>1740.4560546875</ele>
        <time>2017-01-06T08:53:09Z</time>
      </trkpt>
      <trkpt lat="45.26774" lon="6.02031">
        <ele>1741.4560546875</ele>
        <time>2017-01-06T08:53:17Z</time>
      </trkpt>
      <trkpt lat="45.26774" lon="6.02042">
        <ele>1742.4560546875</ele>
        <time>2017-01-06T08:53:26Z</time>
      </trkpt>
      <trkpt lat="45.26774" lon="6.02053">
        <ele>1743.4560546875</ele>
        <time>2017-01-06T08:53:33Z</time>
      </trkpt>
      <trkpt lat="45.26774" lon="6.02065">
        <ele>1749.4560546875</ele>
        <time>2017-01-06T08:53:42Z</time>
      </trkpt>
      <trkpt lat="45.26778" lon="6.02075">
        <ele>1752.4560546875</ele>
        <time>2017-01-06T08:53:52Z</time>
      </trkpt>
      <trkpt lat="45.26778" lon="6.02086">
        <ele>1754.4560546875</ele>
        <time>2017-01-06T08:53:58Z</time>
      </trkpt>
      <trkpt lat="45.26776" lon="6.02096">
        <ele>1755.4560546875</ele>
        <time>2017-01-06T08:54:08Z</time>
      </trkpt>
      <trkpt lat="45.26769" lon="6.02101">
        <ele>1758.4560546875</ele>
        <time>2017-01-06T08:54:15Z</time>
      </trkpt>
      <trkpt lat="45.26765" lon="6.02111">
        <ele>1758.4560546875</ele>
        <time>2017-01-06T08:54:25Z</time>
      </trkpt>
      <trkpt lat="45.2676" lon="6.02119">
        <ele>1758.4560546875</ele>
        <time>2017-01-06T08:54:32Z</time>
      </trkpt>
      <trkpt lat="45.2675" lon="6.02136">
        <ele>1759.4560546875</ele>
        <time>2017-01-06T08:54:42Z</time>
      </trkpt>
      <trkpt lat="45.26745" lon="6.02146">
        <ele>1758.4560546875</ele>
        <time>2017-01-06T08:54:53Z</time>
      </trkpt>
      <trkpt lat="45.26742" lon="6.02157">
        <ele>1757.4560546875</ele>
        <time>2017-01-06T08:54:58Z</time>
      </trkpt>
      <trkpt lat="45.2674" lon="6.02178">
        <ele>1761.4560546875</ele>
        <time>2017-01-06T08:55:08Z</time>
      </trkpt>
      <trkpt lat="45.2674" lon="6.0219">
        <ele>1760.4560546875</ele>
        <time>2017-01-06T08:55:16Z</time>
      </trkpt>
      <trkpt lat="45.26738" lon="6.02201">
        <ele>1757.4560546875</ele>
        <time>2017-01-06T08:55:25Z</time>
      </trkpt>
      <trkpt lat="45.26735" lon="6.02224">
        <ele>1755.45703125</ele>
        <time>2017-01-06T08:55:35Z</time>
      </trkpt>
      <trkpt lat="45.26737" lon="6.02234">
        <ele>1753.45703125</ele>
        <time>2017-01-06T08:55:44Z</time>
      </trkpt>
      <trkpt lat="45.26737" lon="6.02245">
        <ele>1754.45703125</ele>
        <time>2017-01-06T08:55:49Z</time>
      </trkpt>
      <trkpt lat="45.26736" lon="6.02256">
        <ele>1754.45703125</ele>
        <time>2017-01-06T08:56:02Z</time>
      </trkpt>
      <trkpt lat="45.26734" lon="6.02266">
        <ele>1754.45703125</ele>
        <time>2017-01-06T08:56:06Z</time>
      </trkpt>
      <trkpt lat="45.26734" lon="6.02277">
        <ele>1755.45703125</ele>
        <time>2017-01-06T08:56:12Z</time>
      </trkpt>
      <trkpt lat="45.26735" lon="6.02287">
        <ele>1754.45703125</ele>
        <time>2017-01-06T08:56:17Z</time>
      </trkpt>
      <trkpt lat="45.26734" lon="6.023">
        <ele>1754.45703125</ele>
        <time>2017-01-06T08:56:23Z</time>
      </trkpt>
      <trkpt lat="45.26734" lon="6.02311">
        <ele>1754.45703125</ele>
        <time>2017-01-06T08:56:32Z</time>
      </trkpt>
      <trkpt lat="45.26733" lon="6.02322">
        <ele>1752.45703125</ele>
        <time>2017-01-06T08:56:38Z</time>
      </trkpt>
      <trkpt lat="45.26733" lon="6.02334">
        <ele>1755.45703125</ele>
        <time>2017-01-06T08:56:45Z</time>
      </trkpt>
      <trkpt lat="45.26734" lon="6.02344">
        <ele>1758.45703125</ele>
        <time>2017-01-06T08:56:53Z</time>
      </trkpt>
      <trkpt lat="45.26734" lon="6.02355">
        <ele>1757.45703125</ele>
        <time>2017-01-06T08:56:58Z</time>
      </trkpt>
      <trkpt lat="45.26736" lon="6.02367">
        <ele>1756.45703125</ele>
        <time>2017-01-06T08:57:05Z</time>
      </trkpt>
      <trkpt lat="45.26733" lon="6.02379">
        <ele>1752.45703125</ele>
        <time>2017-01-06T08:57:12Z</time>
      </trkpt>
      <trkpt lat="45.26729" lon="6.02389">
        <ele>1757.45703125</ele>
        <time>2017-01-06T08:57:19Z</time>
      </trkpt>
      <trkpt lat="45.26724" lon="6.024">
        <ele>1759.45703125</ele>
        <time>2017-01-06T08:57:26Z</time>
      </trkpt>
      <trkpt lat="45.2672" lon="6.02409">
        <ele>1758.45703125</ele>
        <time>2017-01-06T08:57:34Z</time>
      </trkpt>
      <trkpt lat="45.26716" lon="6.02418">
        <ele>1756.45703125</ele>
        <time>2017-01-06T08:57:40Z</time>
      </trkpt>
      <trkpt lat="45.26713" lon="6.0243">
        <ele>1757.45703125</ele>
        <time>2017-01-06T08:57:46Z</time>
      </trkpt>
      <trkpt lat="45.26711" lon="6.02441">
        <ele>1756.45703125</ele>
        <time>2017-01-06T08:57:54Z</time>
      </trkpt>
      <trkpt lat="45.26708" lon="6.02454">
        <ele>1760.45703125</ele>
        <time>2017-01-06T08:58:03Z</time>
      </trkpt>
      <trkpt lat="45.26706" lon="6.02465">
        <ele>1758.45703125</ele>
        <time>2017-01-06T08:58:08Z</time>
      </trkpt>
      <trkpt lat="45.267" lon="6.0249">
        <ele>1760.45703125</ele>
        <time>2017-01-06T08:58:20Z</time>
      </trkpt>
      <trkpt lat="45.26697" lon="6.025">
        <ele>1759.45703125</ele>
        <time>2017-01-06T08:58:29Z</time>
      </trkpt>
      <trkpt lat="45.26693" lon="6.02512">
        <ele>1764.45703125</ele>
        <time>2017-01-06T08:58:38Z</time>
      </trkpt>
      <trkpt lat="45.2669" lon="6.0252">
        <ele>1762.45703125</ele>
        <time>2017-01-06T08:58:44Z</time>
      </trkpt>
      <trkpt lat="45.26686" lon="6.0253">
        <ele>1764.45703125</ele>
        <time>2017-01-06T08:58:50Z</time>
      </trkpt>
      <trkpt lat="45.26682" lon="6.02539">
        <ele>1764.45703125</ele>
        <time>2017-01-06T08:58:56Z</time>
      </trkpt>
      <trkpt lat="45.26681" lon="6.02549">
        <ele>1741.45703125</ele>
        <time>2017-01-06T08:59:01Z</time>
      </trkpt>
      <trkpt lat="45.26678" lon="6.02561">
        <ele>1760.45703125</ele>
        <time>2017-01-06T08:59:08Z</time>
      </trkpt>
      <trkpt lat="45.26676" lon="6.02571">
        <ele>1765.45703125</ele>
        <time>2017-01-06T08:59:13Z</time>
      </trkpt>
      <trkpt lat="45.26674" lon="6.02581">
        <ele>1770.45703125</ele>
        <time>2017-01-06T08:59:22Z</time>
      </trkpt>
      <trkpt lat="45.26671" lon="6.02591">
        <ele>1772.45703125</ele>
        <time>2017-01-06T08:59:29Z</time>
      </trkpt>
      <trkpt lat="45.26669" lon="6.02603">
        <ele>1773.45703125</ele>
        <time>2017-01-06T08:59:37Z</time>
      </trkpt>
      <trkpt lat="45.26666" lon="6.02613">
        <ele>1774.45703125</ele>
        <time>2017-01-06T08:59:45Z</time>
      </trkpt>
      <trkpt lat="45.26664" lon="6.02624">
        <ele>1778.45703125</ele>
        <time>2017-01-06T08:59:53Z</time>
      </trkpt>
      <trkpt lat="45.26663" lon="6.02637">
        <ele>1778.45703125</ele>
        <time>2017-01-06T09:00:00Z</time>
      </trkpt>
      <trkpt lat="45.26658" lon="6.02646">
        <ele>1775.45703125</ele>
        <time>2017-01-06T09:00:05Z</time>
      </trkpt>
      <trkpt lat="45.26653" lon="6.02654">
        <ele>1775.45703125</ele>
        <time>2017-01-06T09:00:23Z</time>
      </trkpt>
      <trkpt lat="45.26649" lon="6.02662">
        <ele>1782.45703125</ele>
        <time>2017-01-06T09:00:57Z</time>
      </trkpt>
      <trkpt lat="45.26644" lon="6.02669">
        <ele>1784.45703125</ele>
        <time>2017-01-06T09:01:12Z</time>
      </trkpt>
      <trkpt lat="45.26639" lon="6.02679">
        <ele>1789.45703125</ele>
        <time>2017-01-06T09:01:31Z</time>
      </trkpt>
      <trkpt lat="45.26635" lon="6.02688">
        <ele>1793.45703125</ele>
        <time>2017-01-06T09:01:53Z</time>
      </trkpt>
      <trkpt lat="45.2663" lon="6.02695">
        <ele>1793.45703125</ele>
        <time>2017-01-06T09:02:05Z</time>
      </trkpt>
      <trkpt lat="45.26625" lon="6.02704">
        <ele>1795.45703125</ele>
        <time>2017-01-06T09:02:16Z</time>
      </trkpt>
      <trkpt lat="45.26622" lon="6.02714">
        <ele>1800.45703125</ele>
        <time>2017-01-06T09:02:29Z</time>
      </trkpt>
      <trkpt lat="45.26621" lon="6.02724">
        <ele>1806.45703125</ele>
        <time>2017-01-06T09:02:50Z</time>
      </trkpt>
      <trkpt lat="45.26622" lon="6.02735">
        <ele>1807.45703125</ele>
        <time>2017-01-06T09:03:02Z</time>
      </trkpt>
      <trkpt lat="45.26621" lon="6.02747">
        <ele>1811.45703125</ele>
        <time>2017-01-06T09:03:22Z</time>
      </trkpt>
      <trkpt lat="45.26619" lon="6.02757">
        <ele>1813.45703125</ele>
        <time>2017-01-06T09:03:29Z</time>
      </trkpt>
      <trkpt lat="45.2662" lon="6.02768">
        <ele>1817.45703125</ele>
        <time>2017-01-06T09:03:41Z</time>
      </trkpt>
      <trkpt lat="45.26618" lon="6.02778">
        <ele>1819.45703125</ele>
        <time>2017-01-06T09:03:46Z</time>
      </trkpt>
      <trkpt lat="45.26617" lon="6.02788">
        <ele>1819.45703125</ele>
        <time>2017-01-06T09:03:54Z</time>
      </trkpt>
      <trkpt lat="45.2662" lon="6.02799">
        <ele>1819.45703125</ele>
        <time>2017-01-06T09:04:03Z</time>
      </trkpt>
      <trkpt lat="45.2662" lon="6.0281">
        <ele>1815.45703125</ele>
        <time>2017-01-06T09:04:10Z</time>
      </trkpt>
      <trkpt lat="45.26619" lon="6.02821">
        <ele>1817.45703125</ele>
        <time>2017-01-06T09:04:16Z</time>
      </trkpt>
      <trkpt lat="45.2662" lon="6.02831">
        <ele>1819.45703125</ele>
        <time>2017-01-06T09:04:22Z</time>
      </trkpt>
      <trkpt lat="45.26618" lon="6.02842">
        <ele>1823.45703125</ele>
        <time>2017-01-06T09:04:30Z</time>
      </trkpt>
      <trkpt lat="45.26619" lon="6.02853">
        <ele>1826.45703125</ele>
        <time>2017-01-06T09:04:40Z</time>
      </trkpt>
      <trkpt lat="45.26618" lon="6.02865">
        <ele>1827.45703125</ele>
        <time>2017-01-06T09:04:50Z</time>
      </trkpt>
      <trkpt lat="45.26618" lon="6.02877">
        <ele>1829.45703125</ele>
        <time>2017-01-06T09:04:55Z</time>
      </trkpt>
      <trkpt lat="45.26616" lon="6.02887">
        <ele>1806.45703125</ele>
        <time>2017-01-06T09:05:03Z</time>
      </trkpt>
      <trkpt lat="45.26615" lon="6.02901">
        <ele>1822.45703125</ele>
        <time>2017-01-06T09:05:09Z</time>
      </trkpt>
      <trkpt lat="45.26615" lon="6.02911">
        <ele>1824.45703125</ele>
        <time>2017-01-06T09:05:18Z</time>
      </trkpt>
      <trkpt lat="45.26618" lon="6.02922">
        <ele>1827.45703125</ele>
        <time>2017-01-06T09:05:26Z</time>
      </trkpt>
      <trkpt lat="45.26622" lon="6.02931">
        <ele>1831.45703125</ele>
        <time>2017-01-06T09:05:33Z</time>
      </trkpt>
      <trkpt lat="45.2662" lon="6.0294">
        <ele>1833.45703125</ele>
        <time>2017-01-06T09:05:46Z</time>
      </trkpt>
      <trkpt lat="45.26617" lon="6.02953">
        <ele>1832.45703125</ele>
        <time>2017-01-06T09:05:51Z</time>
      </trkpt>
      <trkpt lat="45.26615" lon="6.02963">
        <ele>1834.45703125</ele>
        <time>2017-01-06T09:05:57Z</time>
      </trkpt>
      <trkpt lat="45.26615" lon="6.02973">
        <ele>1831.45703125</ele>
        <time>2017-01-06T09:06:04Z</time>
      </trkpt>
      <trkpt lat="45.26617" lon="6.02984">
        <ele>1832.45703125</ele>
        <time>2017-01-06T09:06:12Z</time>
      </trkpt>
      <trkpt lat="45.26617" lon="6.02996">
        <ele>1832.45703125</ele>
        <time>2017-01-06T09:06:20Z</time>
      </trkpt>
      <trkpt lat="45.26621" lon="6.03008">
        <ele>1836.45703125</ele>
        <time>2017-01-06T09:06:27Z</time>
      </trkpt>
      <trkpt lat="45.26624" lon="6.03017">
        <ele>1838.45703125</ele>
        <time>2017-01-06T09:06:34Z</time>
      </trkpt>
      <trkpt lat="45.26624" lon="6.03027">
        <ele>1839.45703125</ele>
        <time>2017-01-06T09:06:41Z</time>
      </trkpt>
      <trkpt lat="45.26625" lon="6.0304">
        <ele>1839.45703125</ele>
        <time>2017-01-06T09:06:49Z</time>
      </trkpt>
      <trkpt lat="45.26626" lon="6.0305">
        <ele>1838.45703125</ele>
        <time>2017-01-06T09:06:56Z</time>
      </trkpt>
      <trkpt lat="45.26623" lon="6.0306">
        <ele>1840.45703125</ele>
        <time>2017-01-06T09:07:04Z</time>
      </trkpt>
      <trkpt lat="45.26627" lon="6.0307">
        <ele>1843.45703125</ele>
        <time>2017-01-06T09:07:12Z</time>
      </trkpt>
      <trkpt lat="45.26625" lon="6.0308">
        <ele>1849.45703125</ele>
        <time>2017-01-06T09:07:33Z</time>
      </trkpt>
      <trkpt lat="45.26624" lon="6.0309">
        <ele>1852.45703125</ele>
        <time>2017-01-06T09:07:51Z</time>
      </trkpt>
      <trkpt lat="45.26623" lon="6.03101">
        <ele>1852.45703125</ele>
        <time>2017-01-06T09:08:06Z</time>
      </trkpt>
      <trkpt lat="45.26623" lon="6.03111">
        <ele>1858.45703125</ele>
        <time>2017-01-06T09:08:29Z</time>
      </trkpt>
      <trkpt lat="45.26618" lon="6.03119">
        <ele>1862.4580078125</ele>
        <time>2017-01-06T09:08:45Z</time>
      </trkpt>
      <trkpt lat="45.26611" lon="6.03123">
        <ele>1866.45703125</ele>
        <time>2017-01-06T09:08:53Z</time>
      </trkpt>
      <trkpt lat="45.26605" lon="6.03129">
        <ele>1865.45703125</ele>
        <time>2017-01-06T09:09:01Z</time>
      </trkpt>
      <trkpt lat="45.26599" lon="6.03134">
        <ele>1867.45703125</ele>
        <time>2017-01-06T09:09:09Z</time>
      </trkpt>
      <trkpt lat="45.26592" lon="6.03138">
        <ele>1866.45703125</ele>
        <time>2017-01-06T09:09:17Z</time>
      </trkpt>
      <trkpt lat="45.26583" lon="6.03141">
        <ele>1866.45703125</ele>
        <time>2017-01-06T09:09:24Z</time>
      </trkpt>
      <trkpt lat="45.26575" lon="6.03143">
        <ele>1866.45703125</ele>
        <time>2017-01-06T09:09:31Z</time>
      </trkpt>
      <trkpt lat="45.26569" lon="6.03148">
        <ele>1869.45703125</ele>
        <time>2017-01-06T09:09:41Z</time>
      </trkpt>
      <trkpt lat="45.2656" lon="6.03149">
        <ele>1868.45703125</ele>
        <time>2017-01-06T09:09:51Z</time>
      </trkpt>
      <trkpt lat="45.26552" lon="6.03153">
        <ele>1871.45703125</ele>
        <time>2017-01-06T09:10:00Z</time>
      </trkpt>
      <trkpt lat="45.26543" lon="6.03155">
        <ele>1877.45703125</ele>
        <time>2017-01-06T09:10:10Z</time>
      </trkpt>
      <trkpt lat="45.26536" lon="6.03152">
        <ele>1876.45703125</ele>
        <time>2017-01-06T09:10:18Z</time>
      </trkpt>
      <trkpt lat="45.26528" lon="6.03155">
        <ele>1875.45703125</ele>
        <time>2017-01-06T09:10:27Z</time>
      </trkpt>
      <trkpt lat="45.2652" lon="6.03158">
        <ele>1875.45703125</ele>
        <time>2017-01-06T09:10:37Z</time>
      </trkpt>
      <trkpt lat="45.26512" lon="6.03162">
        <ele>1875.45703125</ele>
        <time>2017-01-06T09:10:44Z</time>
      </trkpt>
      <trkpt lat="45.26504" lon="6.03165">
        <ele>1876.45703125</ele>
        <time>2017-01-06T09:10:51Z</time>
      </trkpt>
      <trkpt lat="45.26496" lon="6.03169">
        <ele>1877.45703125</ele>
        <time>2017-01-06T09:11:00Z</time>
      </trkpt>
      <trkpt lat="45.26489" lon="6.03173">
        <ele>1879.45703125</ele>
        <time>2017-01-06T09:11:08Z</time>
      </trkpt>
      <trkpt lat="45.26482" lon="6.03176">
        <ele>1881.45703125</ele>
        <time>2017-01-06T09:11:16Z</time>
      </trkpt>
      <trkpt lat="45.26474" lon="6.03172">
        <ele>1879.45703125</ele>
        <time>2017-01-06T09:11:23Z</time>
      </trkpt>
      <trkpt lat="45.26467" lon="6.03174">
        <ele>1881.45703125</ele>
        <time>2017-01-06T09:11:31Z</time>
      </trkpt>
      <trkpt lat="45.26459" lon="6.03175">
        <ele>1880.45703125</ele>
        <time>2017-01-06T09:11:49Z</time>
      </trkpt>
      <trkpt lat="45.26452" lon="6.03177">
        <ele>1881.45703125</ele>
        <time>2017-01-06T09:11:59Z</time>
      </trkpt>
      <trkpt lat="45.26443" lon="6.0318">
        <ele>1881.45703125</ele>
        <time>2017-01-06T09:12:04Z</time>
      </trkpt>
      <trkpt lat="45.26435" lon="6.03178">
        <ele>1884.45703125</ele>
        <time>2017-01-06T09:12:16Z</time>
      </trkpt>
      <trkpt lat="45.26429" lon="6.03182">
        <ele>1888.45703125</ele>
        <time>2017-01-06T09:12:35Z</time>
      </trkpt>
      <trkpt lat="45.26421" lon="6.03181">
        <ele>1891.45703125</ele>
        <time>2017-01-06T09:12:40Z</time>
      </trkpt>
      <trkpt lat="45.26415" lon="6.03185">
        <ele>1891.45703125</ele>
        <time>2017-01-06T09:12:46Z</time>
      </trkpt>
      <trkpt lat="45.26407" lon="6.03183">
        <ele>1891.45703125</ele>
        <time>2017-01-06T09:12:54Z</time>
      </trkpt>
      <trkpt lat="45.264" lon="6.03181">
        <ele>1888.45703125</ele>
        <time>2017-01-06T09:12:59Z</time>
      </trkpt>
      <trkpt lat="45.26392" lon="6.0318">
        <ele>1889.45703125</ele>
        <time>2017-01-06T09:13:05Z</time>
      </trkpt>
      <trkpt lat="45.26385" lon="6.03176">
        <ele>1889.45703125</ele>
        <time>2017-01-06T09:13:12Z</time>
      </trkpt>
      <trkpt lat="45.26378" lon="6.03173">
        <ele>1891.45703125</ele>
        <time>2017-01-06T09:13:20Z</time>
      </trkpt>
      <trkpt lat="45.2637" lon="6.03171">
        <ele>1891.45703125</ele>
        <time>2017-01-06T09:13:28Z</time>
      </trkpt>
      <trkpt lat="45.26364" lon="6.03166">
        <ele>1896.45703125</ele>
        <time>2017-01-06T09:13:38Z</time>
      </trkpt>
      <trkpt lat="45.26357" lon="6.03164">
        <ele>1896.45703125</ele>
        <time>2017-01-06T09:13:48Z</time>
      </trkpt>
      <trkpt lat="45.26348" lon="6.0316">
        <ele>1897.45703125</ele>
        <time>2017-01-06T09:13:54Z</time>
      </trkpt>
      <trkpt lat="45.2634" lon="6.03157">
        <ele>1898.45703125</ele>
        <time>2017-01-06T09:14:06Z</time>
      </trkpt>
      <trkpt lat="45.26333" lon="6.03158">
        <ele>1894.45703125</ele>
        <time>2017-01-06T09:14:13Z</time>
      </trkpt>
      <trkpt lat="45.26325" lon="6.0316">
        <ele>1895.45703125</ele>
        <time>2017-01-06T09:14:30Z</time>
      </trkpt>
      <trkpt lat="45.26317" lon="6.03159">
        <ele>1895.45703125</ele>
        <time>2017-01-06T09:14:37Z</time>
      </trkpt>
      <trkpt lat="45.26309" lon="6.03156">
        <ele>1896.45703125</ele>
        <time>2017-01-06T09:14:44Z</time>
      </trkpt>
      <trkpt lat="45.26302" lon="6.03152">
        <ele>1899.45703125</ele>
        <time>2017-01-06T09:14:52Z</time>
      </trkpt>
      <trkpt lat="45.26295" lon="6.03147">
        <ele>1905.45703125</ele>
        <time>2017-01-06T09:15:06Z</time>
      </trkpt>
      <trkpt lat="45.26289" lon="6.03142">
        <ele>1910.45703125</ele>
        <time>2017-01-06T09:15:19Z</time>
      </trkpt>
      <trkpt lat="45.26281" lon="6.03142">
        <ele>1908.45703125</ele>
        <time>2017-01-06T09:15:29Z</time>
      </trkpt>
      <trkpt lat="45.26274" lon="6.03138">
        <ele>1912.45703125</ele>
        <time>2017-01-06T09:15:40Z</time>
      </trkpt>
      <trkpt lat="45.26267" lon="6.03139">
        <ele>1911.45703125</ele>
        <time>2017-01-06T09:15:50Z</time>
      </trkpt>
      <trkpt lat="45.2626" lon="6.03142">
        <ele>1916.45703125</ele>
        <time>2017-01-06T09:15:59Z</time>
      </trkpt>
      <trkpt lat="45.26253" lon="6.03137">
        <ele>1917.45703125</ele>
        <time>2017-01-06T09:16:25Z</time>
      </trkpt>
      <trkpt lat="45.26246" lon="6.03134">
        <ele>1917.45703125</ele>
        <time>2017-01-06T09:16:31Z</time>
      </trkpt>
      <trkpt lat="45.26239" lon="6.0313">
        <ele>1917.45703125</ele>
        <time>2017-01-06T09:16:39Z</time>
      </trkpt>
      <trkpt lat="45.26232" lon="6.03125">
        <ele>1916.45703125</ele>
        <time>2017-01-06T09:16:44Z</time>
      </trkpt>
      <trkpt lat="45.26226" lon="6.03118">
        <ele>1915.45703125</ele>
        <time>2017-01-06T09:16:50Z</time>
      </trkpt>
      <trkpt lat="45.26219" lon="6.03115">
        <ele>1916.45703125</ele>
        <time>2017-01-06T09:16:59Z</time>
      </trkpt>
      <trkpt lat="45.26212" lon="6.03112">
        <ele>1920.45703125</ele>
        <time>2017-01-06T09:17:09Z</time>
      </trkpt>
      <trkpt lat="45.26204" lon="6.03107">
        <ele>1919.45703125</ele>
        <time>2017-01-06T09:17:20Z</time>
      </trkpt>
      <trkpt lat="45.26197" lon="6.03103">
        <ele>1924.45703125</ele>
        <time>2017-01-06T09:17:28Z</time>
      </trkpt>
      <trkpt lat="45.2619" lon="6.03101">
        <ele>1926.45703125</ele>
        <time>2017-01-06T09:17:35Z</time>
      </trkpt>
      <trkpt lat="45.26182" lon="6.03103">
        <ele>1924.45703125</ele>
        <time>2017-01-06T09:17:45Z</time>
      </trkpt>
      <trkpt lat="45.26175" lon="6.03108">
        <ele>1930.45703125</ele>
        <time>2017-01-06T09:17:59Z</time>
      </trkpt>
      <trkpt lat="45.2617" lon="6.03115">
        <ele>1882.45703125</ele>
        <time>2017-01-06T09:18:09Z</time>
      </trkpt>
      <trkpt lat="45.26165" lon="6.03123">
        <ele>1921.45703125</ele>
        <time>2017-01-06T09:18:19Z</time>
      </trkpt>
      <trkpt lat="45.26157" lon="6.03126">
        <ele>1934.45703125</ele>
        <time>2017-01-06T09:18:32Z</time>
      </trkpt>
      <trkpt lat="45.26149" lon="6.03127">
        <ele>1940.45703125</ele>
        <time>2017-01-06T09:18:45Z</time>
      </trkpt>
      <trkpt lat="45.26143" lon="6.03131">
        <ele>1939.45703125</ele>
        <time>2017-01-06T09:18:52Z</time>
      </trkpt>
      <trkpt lat="45.26138" lon="6.03139">
        <ele>1941.45703125</ele>
        <time>2017-01-06T09:19:00Z</time>
      </trkpt>
      <trkpt lat="45.26133" lon="6.03147">
        <ele>1941.45703125</ele>
        <time>2017-01-06T09:19:14Z</time>
      </trkpt>
      <trkpt lat="45.26128" lon="6.03156">
        <ele>1939.45703125</ele>
        <time>2017-01-06T09:19:29Z</time>
      </trkpt>
      <trkpt lat="45.26127" lon="6.03168">
        <ele>1941.45703125</ele>
        <time>2017-01-06T09:19:39Z</time>
      </trkpt>
      <trkpt lat="45.26125" lon="6.03178">
        <ele>1946.45703125</ele>
        <time>2017-01-06T09:19:46Z</time>
      </trkpt>
      <trkpt lat="45.26119" lon="6.03186">
        <ele>1952.45703125</ele>
        <time>2017-01-06T09:19:58Z</time>
      </trkpt>
      <trkpt lat="45.26111" lon="6.03189">
        <ele>1959.45703125</ele>
        <time>2017-01-06T09:20:09Z</time>
      </trkpt>
      <trkpt lat="45.26104" lon="6.03188">
        <ele>1963.45703125</ele>
        <time>2017-01-06T09:20:24Z</time>
      </trkpt>
      <trkpt lat="45.26099" lon="6.03197">
        <ele>1964.45703125</ele>
        <time>2017-01-06T09:20:50Z</time>
      </trkpt>
      <trkpt lat="45.26094" lon="6.03205">
        <ele>1967.45703125</ele>
        <time>2017-01-06T09:20:56Z</time>
      </trkpt>
      <trkpt lat="45.26089" lon="6.03213">
        <ele>1967.45703125</ele>
        <time>2017-01-06T09:21:05Z</time>
      </trkpt>
      <trkpt lat="45.26082" lon="6.03218">
        <ele>1917.45703125</ele>
        <time>2017-01-06T09:21:23Z</time>
      </trkpt>
      <trkpt lat="45.26075" lon="6.03224">
        <ele>1974.45703125</ele>
        <time>2017-01-06T09:21:41Z</time>
      </trkpt>
      <trkpt lat="45.26077" lon="6.03234">
        <ele>1979.45703125</ele>
        <time>2017-01-06T09:22:20Z</time>
      </trkpt>
      <trkpt lat="45.26078" lon="6.03245">
        <ele>1982.45703125</ele>
        <time>2017-01-06T09:22:50Z</time>
      </trkpt>
      <trkpt lat="45.26082" lon="6.03254">
        <ele>1989.45703125</ele>
        <time>2017-01-06T09:23:22Z</time>
      </trkpt>
      <trkpt lat="45.26084" lon="6.03266">
        <ele>2000.45703125</ele>
        <time>2017-01-06T09:23:56Z</time>
      </trkpt>
      <trkpt lat="45.2609" lon="6.03272">
        <ele>2005.45703125</ele>
        <time>2017-01-06T09:24:17Z</time>
      </trkpt>
      <trkpt lat="45.26088" lon="6.03283">
        <ele>2004.45703125</ele>
        <time>2017-01-06T09:24:50Z</time>
      </trkpt>
      <trkpt lat="45.26085" lon="6.03292">
        <ele>2006.45703125</ele>
        <time>2017-01-06T09:25:10Z</time>
      </trkpt>
      <trkpt lat="45.26091" lon="6.03299">
        <ele>2012.45703125</ele>
        <time>2017-01-06T09:25:36Z</time>
      </trkpt>
      <trkpt lat="45.26096" lon="6.03306">
        <ele>2023.45703125</ele>
        <time>2017-01-06T09:25:58Z</time>
      </trkpt>
      <trkpt lat="45.26102" lon="6.03314">
        <ele>2026.45703125</ele>
        <time>2017-01-06T09:26:13Z</time>
      </trkpt>
      <trkpt lat="45.26108" lon="6.0332">
        <ele>2029.45703125</ele>
        <time>2017-01-06T09:26:43Z</time>
      </trkpt>
      <trkpt lat="45.26113" lon="6.03328">
        <ele>2035.45703125</ele>
        <time>2017-01-06T09:27:10Z</time>
      </trkpt>
      <trkpt lat="45.26119" lon="6.03335">
        <ele>2035.45703125</ele>
        <time>2017-01-06T09:27:24Z</time>
      </trkpt>
      <trkpt lat="45.26124" lon="6.03344">
        <ele>2036.45703125</ele>
        <time>2017-01-06T09:27:33Z</time>
      </trkpt>
      <trkpt lat="45.26131" lon="6.03348">
        <ele>2038.45703125</ele>
        <time>2017-01-06T09:28:01Z</time>
      </trkpt>
      <trkpt lat="45.26137" lon="6.03356">
        <ele>2038.45703125</ele>
        <time>2017-01-06T09:28:18Z</time>
      </trkpt>
      <trkpt lat="45.26141" lon="6.03365">
        <ele>2042.45703125</ele>
        <time>2017-01-06T09:28:30Z</time>
      </trkpt>
      <trkpt lat="45.26147" lon="6.03372">
        <ele>2043.45703125</ele>
        <time>2017-01-06T09:28:46Z</time>
      </trkpt>
      <trkpt lat="45.2615" lon="6.03383">
        <ele>2045.45703125</ele>
        <time>2017-01-06T09:29:39Z</time>
      </trkpt>
      <trkpt lat="45.2615" lon="6.03394">
        <ele>2055.45703125</ele>
        <time>2017-01-06T09:30:38Z</time>
      </trkpt>
      <trkpt lat="45.26148" lon="6.03404">
        <ele>2063.45703125</ele>
        <time>2017-01-06T09:31:32Z</time>
      </trkpt>
      <trkpt lat="45.26147" lon="6.03415">
        <ele>2069.45703125</ele>
        <time>2017-01-06T09:32:02Z</time>
      </trkpt>
      <trkpt lat="45.26144" lon="6.03424">
        <ele>2074.45703125</ele>
        <time>2017-01-06T09:32:58Z</time>
      </trkpt>
      <trkpt lat="45.26138" lon="6.03432">
        <ele>2078.45703125</ele>
        <time>2017-01-06T09:33:47Z</time>
      </trkpt>
      <trkpt lat="45.26144" lon="6.0344">
        <ele>2083.45703125</ele>
        <time>2017-01-06T09:34:01Z</time>
      </trkpt>
      <trkpt lat="45.26146" lon="6.0345">
        <ele>2084.45703125</ele>
        <time>2017-01-06T09:34:23Z</time>
      </trkpt>
      <trkpt lat="45.26142" lon="6.0346">
        <ele>2083.45703125</ele>
        <time>2017-01-06T09:35:06Z</time>
      </trkpt>
      <trkpt lat="45.26138" lon="6.0347">
        <ele>2084.45703125</ele>
        <time>2017-01-06T09:35:16Z</time>
      </trkpt>
      <trkpt lat="45.2613" lon="6.03469">
        <ele>2087.45703125</ele>
        <time>2017-01-06T09:36:10Z</time>
      </trkpt>
      <trkpt lat="45.26123" lon="6.03466">
        <ele>2087.45703125</ele>
        <time>2017-01-06T09:36:15Z</time>
      </trkpt>
      <trkpt lat="45.26116" lon="6.03462">
        <ele>2083.45703125</ele>
        <time>2017-01-06T09:36:24Z</time>
      </trkpt>
      <trkpt lat="45.26109" lon="6.03458">
        <ele>2081.45703125</ele>
        <time>2017-01-06T09:36:29Z</time>
      </trkpt>
      <trkpt lat="45.261" lon="6.03455">
        <ele>2081.45703125</ele>
        <time>2017-01-06T09:36:38Z</time>
      </trkpt>
      <trkpt lat="45.26092" lon="6.03454">
        <ele>2082.45703125</ele>
        <time>2017-01-06T09:36:44Z</time>
      </trkpt>
      <trkpt lat="45.26084" lon="6.03451">
        <ele>2083.45703125</ele>
        <time>2017-01-06T09:36:49Z</time>
      </trkpt>
      <trkpt lat="45.26077" lon="6.03449">
        <ele>2081.45703125</ele>
        <time>2017-01-06T09:36:55Z</time>
      </trkpt>
      <trkpt lat="45.26069" lon="6.03448">
        <ele>2083.45703125</ele>
        <time>2017-01-06T09:37:00Z</time>
      </trkpt>
      <trkpt lat="45.26061" lon="6.03446">
        <ele>2083.45703125</ele>
        <time>2017-01-06T09:37:06Z</time>
      </trkpt>
      <trkpt lat="45.26054" lon="6.03442">
        <ele>2082.45703125</ele>
        <time>2017-01-06T09:37:13Z</time>
      </trkpt>
      <trkpt lat="45.26047" lon="6.0344">
        <ele>2083.45703125</ele>
        <time>2017-01-06T09:37:21Z</time>
      </trkpt>
      <trkpt lat="45.26039" lon="6.03438">
        <ele>2079.45703125</ele>
        <time>2017-01-06T09:37:29Z</time>
      </trkpt>
      <trkpt lat="45.26023" lon="6.03429">
        <ele>2079.45703125</ele>
        <time>2017-01-06T09:37:39Z</time>
      </trkpt>
      <trkpt lat="45.26016" lon="6.03427">
        <ele>2074.45703125</ele>
        <time>2017-01-06T09:37:49Z</time>
      </trkpt>
      <trkpt lat="45.26009" lon="6.03422">
        <ele>2071.45703125</ele>
        <time>2017-01-06T09:37:54Z</time>
      </trkpt>
      <trkpt lat="45.26002" lon="6.03418">
        <ele>2074.45703125</ele>
        <time>2017-01-06T09:37:59Z</time>
      </trkpt>
      <trkpt lat="45.25996" lon="6.03412">
        <ele>2074.45703125</ele>
        <time>2017-01-06T09:38:09Z</time>
      </trkpt>
      <trkpt lat="45.2599" lon="6.03406">
        <ele>2072.45703125</ele>
        <time>2017-01-06T09:38:14Z</time>
      </trkpt>
      <trkpt lat="45.25982" lon="6.03401">
        <ele>2071.45703125</ele>
        <time>2017-01-06T09:38:21Z</time>
      </trkpt>
      <trkpt lat="45.25968" lon="6.03389">
        <ele>2072.45703125</ele>
        <time>2017-01-06T09:38:32Z</time>
      </trkpt>
      <trkpt lat="45.25957" lon="6.03376">
        <ele>2069.45703125</ele>
        <time>2017-01-06T09:38:41Z</time>
      </trkpt>
      <trkpt lat="45.2595" lon="6.0337">
        <ele>2066.45703125</ele>
        <time>2017-01-06T09:38:47Z</time>
      </trkpt>
      <trkpt lat="45.25936" lon="6.0336">
        <ele>2066.4560546875</ele>
        <time>2017-01-06T09:39:00Z</time>
      </trkpt>
      <trkpt lat="45.2593" lon="6.03353">
        <ele>2066.4560546875</ele>
        <time>2017-01-06T09:39:06Z</time>
      </trkpt>
      <trkpt lat="45.25926" lon="6.03345">
        <ele>2066.4560546875</ele>
        <time>2017-01-06T09:39:12Z</time>
      </trkpt>
      <trkpt lat="45.25922" lon="6.03336">
        <ele>2065.4560546875</ele>
        <time>2017-01-06T09:39:20Z</time>
      </trkpt>
      <trkpt lat="45.25918" lon="6.03327">
        <ele>2062.4560546875</ele>
        <time>2017-01-06T09:39:27Z</time>
      </trkpt>
      <trkpt lat="45.25912" lon="6.03319">
        <ele>2062.4560546875</ele>
        <time>2017-01-06T09:39:32Z</time>
      </trkpt>
      <trkpt lat="45.25906" lon="6.03312">
        <ele>2060.4560546875</ele>
        <time>2017-01-06T09:39:37Z</time>
      </trkpt>
      <trkpt lat="45.25899" lon="6.03307">
        <ele>2053.4560546875</ele>
        <time>2017-01-06T09:39:43Z</time>
      </trkpt>
      <trkpt lat="45.25893" lon="6.03301">
        <ele>2054.4560546875</ele>
        <time>2017-01-06T09:39:49Z</time>
      </trkpt>
      <trkpt lat="45.25888" lon="6.03292">
        <ele>2053.4560546875</ele>
        <time>2017-01-06T09:39:54Z</time>
      </trkpt>
      <trkpt lat="45.2588" lon="6.03289">
        <ele>2058.4560546875</ele>
        <time>2017-01-06T09:40:01Z</time>
      </trkpt>
      <trkpt lat="45.25874" lon="6.03283">
        <ele>2059.4560546875</ele>
        <time>2017-01-06T09:40:07Z</time>
      </trkpt>
      <trkpt lat="45.25868" lon="6.03277">
        <ele>2057.4560546875</ele>
        <time>2017-01-06T09:40:16Z</time>
      </trkpt>
      <trkpt lat="45.25861" lon="6.03271">
        <ele>2055.4560546875</ele>
        <time>2017-01-06T09:40:22Z</time>
      </trkpt>
      <trkpt lat="45.25855" lon="6.03264">
        <ele>2058.4560546875</ele>
        <time>2017-01-06T09:40:28Z</time>
      </trkpt>
      <trkpt lat="45.25849" lon="6.03257">
        <ele>2057.4560546875</ele>
        <time>2017-01-06T09:40:33Z</time>
      </trkpt>
      <trkpt lat="45.25844" lon="6.0325">
        <ele>2060.4560546875</ele>
        <time>2017-01-06T09:40:43Z</time>
      </trkpt>
      <trkpt lat="45.25838" lon="6.03243">
        <ele>2059.4560546875</ele>
        <time>2017-01-06T09:40:48Z</time>
      </trkpt>
      <trkpt lat="45.25832" lon="6.03237">
        <ele>2062.4560546875</ele>
        <time>2017-01-06T09:40:57Z</time>
      </trkpt>
      <trkpt lat="45.25825" lon="6.03234">
        <ele>2059.4560546875</ele>
        <time>2017-01-06T09:41:05Z</time>
      </trkpt>
      <trkpt lat="45.25817" lon="6.03233">
        <ele>2058.4560546875</ele>
        <time>2017-01-06T09:41:14Z</time>
      </trkpt>
      <trkpt lat="45.25809" lon="6.03234">
        <ele>2060.4560546875</ele>
        <time>2017-01-06T09:41:24Z</time>
      </trkpt>
      <trkpt lat="45.25805" lon="6.03225">
        <ele>2050.4560546875</ele>
        <time>2017-01-06T09:41:45Z</time>
      </trkpt>
      <trkpt lat="45.25795" lon="6.03224">
        <ele>2051.4560546875</ele>
        <time>2017-01-06T09:42:56Z</time>
      </trkpt>
      <trkpt lat="45.25787" lon="6.03222">
        <ele>2044.4560546875</ele>
        <time>2017-01-06T09:43:02Z</time>
      </trkpt>
      <trkpt lat="45.2578" lon="6.03218">
        <ele>2043.4560546875</ele>
        <time>2017-01-06T09:43:07Z</time>
      </trkpt>
      <trkpt lat="45.25773" lon="6.03222">
        <ele>2040.4560546875</ele>
        <time>2017-01-06T09:43:13Z</time>
      </trkpt>
      <trkpt lat="45.25767" lon="6.03214">
        <ele>2041.4560546875</ele>
        <time>2017-01-06T09:43:25Z</time>
      </trkpt>
      <trkpt lat="45.25759" lon="6.03211">
        <ele>2043.4560546875</ele>
        <time>2017-01-06T09:43:34Z</time>
      </trkpt>
      <trkpt lat="45.25752" lon="6.0321">
        <ele>2046.4560546875</ele>
        <time>2017-01-06T09:43:40Z</time>
      </trkpt>
      <trkpt lat="45.25743" lon="6.03208">
        <ele>2049.4560546875</ele>
        <time>2017-01-06T09:43:49Z</time>
      </trkpt>
      <trkpt lat="45.25736" lon="6.03204">
        <ele>2053.4560546875</ele>
        <time>2017-01-06T09:43:56Z</time>
      </trkpt>
      <trkpt lat="45.25729" lon="6.032">
        <ele>2053.4560546875</ele>
        <time>2017-01-06T09:44:04Z</time>
      </trkpt>
      <trkpt lat="45.25721" lon="6.03197">
        <ele>2054.4560546875</ele>
        <time>2017-01-06T09:44:10Z</time>
      </trkpt>
      <trkpt lat="45.25714" lon="6.03196">
        <ele>2056.4560546875</ele>
        <time>2017-01-06T09:44:16Z</time>
      </trkpt>
      <trkpt lat="45.25706" lon="6.03196">
        <ele>2058.4560546875</ele>
        <time>2017-01-06T09:44:26Z</time>
      </trkpt>
      <trkpt lat="45.25698" lon="6.03196">
        <ele>2060.4560546875</ele>
        <time>2017-01-06T09:44:32Z</time>
      </trkpt>
      <trkpt lat="45.2569" lon="6.03193">
        <ele>2065.4560546875</ele>
        <time>2017-01-06T09:44:41Z</time>
      </trkpt>
      <trkpt lat="45.25682" lon="6.03195">
        <ele>2070.4560546875</ele>
        <time>2017-01-06T09:44:50Z</time>
      </trkpt>
      <trkpt lat="45.25674" lon="6.03195">
        <ele>2076.4560546875</ele>
        <time>2017-01-06T09:44:58Z</time>
      </trkpt>
      <trkpt lat="45.25666" lon="6.03193">
        <ele>2013.4560546875</ele>
        <time>2017-01-06T09:45:05Z</time>
      </trkpt>
      <trkpt lat="45.25659" lon="6.03194">
        <ele>2066.4560546875</ele>
        <time>2017-01-06T09:45:13Z</time>
      </trkpt>
      <trkpt lat="45.25651" lon="6.03192">
        <ele>2076.4560546875</ele>
        <time>2017-01-06T09:45:21Z</time>
      </trkpt>
      <trkpt lat="45.25644" lon="6.03191">
        <ele>2079.4560546875</ele>
        <time>2017-01-06T09:45:30Z</time>
      </trkpt>
      <trkpt lat="45.25637" lon="6.03186">
        <ele>2080.4560546875</ele>
        <time>2017-01-06T09:45:37Z</time>
      </trkpt>
      <trkpt lat="45.25631" lon="6.0318">
        <ele>2084.4560546875</ele>
        <time>2017-01-06T09:45:45Z</time>
      </trkpt>
      <trkpt lat="45.25625" lon="6.03174">
        <ele>2088.4560546875</ele>
        <time>2017-01-06T09:45:53Z</time>
      </trkpt>
      <trkpt lat="45.25619" lon="6.03166">
        <ele>2084.4560546875</ele>
        <time>2017-01-06T09:46:03Z</time>
      </trkpt>
      <trkpt lat="45.25614" lon="6.0316">
        <ele>2086.4560546875</ele>
        <time>2017-01-06T09:46:14Z</time>
      </trkpt>
      <trkpt lat="45.25606" lon="6.03157">
        <ele>2091.4560546875</ele>
        <time>2017-01-06T09:46:27Z</time>
      </trkpt>
      <trkpt lat="45.25604" lon="6.03168">
        <ele>2094.4560546875</ele>
        <time>2017-01-06T09:46:32Z</time>
      </trkpt>
      <trkpt lat="45.256" lon="6.03178">
        <ele>2098.4560546875</ele>
        <time>2017-01-06T09:46:40Z</time>
      </trkpt>
      <trkpt lat="45.25594" lon="6.03185">
        <ele>2100.4560546875</ele>
        <time>2017-01-06T09:46:45Z</time>
      </trkpt>
      <trkpt lat="45.25588" lon="6.03191">
        <ele>2106.4560546875</ele>
        <time>2017-01-06T09:47:01Z</time>
      </trkpt>
      <trkpt lat="45.25583" lon="6.03199">
        <ele>2106.4560546875</ele>
        <time>2017-01-06T09:47:06Z</time>
      </trkpt>
      <trkpt lat="45.25578" lon="6.03207">
        <ele>2109.4560546875</ele>
        <time>2017-01-06T09:47:13Z</time>
      </trkpt>
      <trkpt lat="45.25573" lon="6.03215">
        <ele>2110.4560546875</ele>
        <time>2017-01-06T09:47:19Z</time>
      </trkpt>
      <trkpt lat="45.25567" lon="6.03222">
        <ele>2113.4560546875</ele>
        <time>2017-01-06T09:47:26Z</time>
      </trkpt>
      <trkpt lat="45.25564" lon="6.03232">
        <ele>2110.4560546875</ele>
        <time>2017-01-06T09:47:33Z</time>
      </trkpt>
      <trkpt lat="45.2556" lon="6.03242">
        <ele>2113.4560546875</ele>
        <time>2017-01-06T09:47:40Z</time>
      </trkpt>
      <trkpt lat="45.25557" lon="6.03251">
        <ele>2113.4560546875</ele>
        <time>2017-01-06T09:47:47Z</time>
      </trkpt>
      <trkpt lat="45.25552" lon="6.0326">
        <ele>2114.4560546875</ele>
        <time>2017-01-06T09:47:55Z</time>
      </trkpt>
      <trkpt lat="45.25548" lon="6.03269">
        <ele>2115.4560546875</ele>
        <time>2017-01-06T09:48:02Z</time>
      </trkpt>
      <trkpt lat="45.25545" lon="6.03279">
        <ele>2116.4560546875</ele>
        <time>2017-01-06T09:48:09Z</time>
      </trkpt>
      <trkpt lat="45.25542" lon="6.03288">
        <ele>2116.4560546875</ele>
        <time>2017-01-06T09:48:15Z</time>
      </trkpt>
      <trkpt lat="45.25539" lon="6.03299">
        <ele>2118.4560546875</ele>
        <time>2017-01-06T09:48:21Z</time>
      </trkpt>
      <trkpt lat="45.25535" lon="6.03309">
        <ele>2119.4560546875</ele>
        <time>2017-01-06T09:48:28Z</time>
      </trkpt>
      <trkpt lat="45.25532" lon="6.0332">
        <ele>2120.4560546875</ele>
        <time>2017-01-06T09:48:35Z</time>
      </trkpt>
      <trkpt lat="45.25531" lon="6.03331">
        <ele>2122.4560546875</ele>
        <time>2017-01-06T09:48:45Z</time>
      </trkpt>
      <trkpt lat="45.25528" lon="6.03341">
        <ele>2125.4560546875</ele>
        <time>2017-01-06T09:48:58Z</time>
      </trkpt>
      <trkpt lat="45.25525" lon="6.03351">
        <ele>2127.4560546875</ele>
        <time>2017-01-06T09:49:06Z</time>
      </trkpt>
      <trkpt lat="45.2552" lon="6.0336">
        <ele>2127.4560546875</ele>
        <time>2017-01-06T09:49:15Z</time>
      </trkpt>
      <trkpt lat="45.25514" lon="6.03368">
        <ele>2129.4560546875</ele>
        <time>2017-01-06T09:50:47Z</time>
      </trkpt>
      <trkpt lat="45.25506" lon="6.0337">
        <ele>2129.4560546875</ele>
        <time>2017-01-06T09:50:54Z</time>
      </trkpt>
      <trkpt lat="45.25499" lon="6.03366">
        <ele>2135.4560546875</ele>
        <time>2017-01-06T09:50:59Z</time>
      </trkpt>
      <trkpt lat="45.25494" lon="6.03358">
        <ele>2136.4560546875</ele>
        <time>2017-01-06T09:51:07Z</time>
      </trkpt>
      <trkpt lat="45.25489" lon="6.03349">
        <ele>2140.4560546875</ele>
        <time>2017-01-06T09:51:18Z</time>
      </trkpt>
      <trkpt lat="45.25483" lon="6.03341">
        <ele>2142.4560546875</ele>
        <time>2017-01-06T09:51:24Z</time>
      </trkpt>
      <trkpt lat="45.25479" lon="6.03331">
        <ele>2143.4560546875</ele>
        <time>2017-01-06T09:51:34Z</time>
      </trkpt>
      <trkpt lat="45.25471" lon="6.03328">
        <ele>2149.4560546875</ele>
        <time>2017-01-06T09:51:42Z</time>
      </trkpt>
      <trkpt lat="45.25463" lon="6.03328">
        <ele>2151.455078125</ele>
        <time>2017-01-06T09:51:51Z</time>
      </trkpt>
      <trkpt lat="45.25456" lon="6.03332">
        <ele>2153.455078125</ele>
        <time>2017-01-06T09:52:02Z</time>
      </trkpt>
      <trkpt lat="45.25451" lon="6.0334">
        <ele>2153.455078125</ele>
        <time>2017-01-06T09:52:09Z</time>
      </trkpt>
      <trkpt lat="45.25444" lon="6.03344">
        <ele>2153.455078125</ele>
        <time>2017-01-06T09:52:20Z</time>
      </trkpt>
      <trkpt lat="45.25436" lon="6.03346">
        <ele>2155.455078125</ele>
        <time>2017-01-06T09:52:30Z</time>
      </trkpt>
      <trkpt lat="45.25432" lon="6.03354">
        <ele>2156.455078125</ele>
        <time>2017-01-06T09:52:42Z</time>
      </trkpt>
      <trkpt lat="45.25428" lon="6.03364">
        <ele>2159.455078125</ele>
        <time>2017-01-06T09:52:54Z</time>
      </trkpt>
      <trkpt lat="45.25426" lon="6.03375">
        <ele>2160.455078125</ele>
        <time>2017-01-06T09:53:02Z</time>
      </trkpt>
      <trkpt lat="45.25421" lon="6.03384">
        <ele>2160.455078125</ele>
        <time>2017-01-06T09:53:11Z</time>
      </trkpt>
      <trkpt lat="45.25416" lon="6.03393">
        <ele>2164.455078125</ele>
        <time>2017-01-06T09:53:20Z</time>
      </trkpt>
      <trkpt lat="45.2541" lon="6.03401">
        <ele>2165.455078125</ele>
        <time>2017-01-06T09:53:28Z</time>
      </trkpt>
      <trkpt lat="45.25404" lon="6.03407">
        <ele>2170.455078125</ele>
        <time>2017-01-06T09:53:51Z</time>
      </trkpt>
      <trkpt lat="45.25396" lon="6.03409">
        <ele>2170.455078125</ele>
        <time>2017-01-06T09:53:59Z</time>
      </trkpt>
      <trkpt lat="45.25403" lon="6.03403">
        <ele>2171.455078125</ele>
        <time>2017-01-06T10:01:01Z</time>
      </trkpt>
      <trkpt lat="45.25408" lon="6.03395">
        <ele>2168.455078125</ele>
        <time>2017-01-06T10:01:06Z</time>
      </trkpt>
      <trkpt lat="45.25419" lon="6.03377">
        <ele>2162.455078125</ele>
        <time>2017-01-06T10:01:12Z</time>
      </trkpt>
      <trkpt lat="45.25425" lon="6.03355">
        <ele>2161.455078125</ele>
        <time>2017-01-06T10:01:19Z</time>
      </trkpt>
      <trkpt lat="45.2543" lon="6.03345">
        <ele>2158.455078125</ele>
        <time>2017-01-06T10:01:31Z</time>
      </trkpt>
      <trkpt lat="45.25438" lon="6.03337">
        <ele>2157.455078125</ele>
        <time>2017-01-06T10:01:46Z</time>
      </trkpt>
      <trkpt lat="45.2546" lon="6.03322">
        <ele>2150.455078125</ele>
        <time>2017-01-06T10:01:52Z</time>
      </trkpt>
      <trkpt lat="45.25467" lon="6.03318">
        <ele>2149.455078125</ele>
        <time>2017-01-06T10:02:00Z</time>
      </trkpt>
      <trkpt lat="45.25475" lon="6.03316">
        <ele>2146.4560546875</ele>
        <time>2017-01-06T10:02:25Z</time>
      </trkpt>
      <trkpt lat="45.25482" lon="6.03319">
        <ele>2139.4560546875</ele>
        <time>2017-01-06T10:02:41Z</time>
      </trkpt>
      <trkpt lat="45.25488" lon="6.03311">
        <ele>2136.4560546875</ele>
        <time>2017-01-06T10:02:48Z</time>
      </trkpt>
      <trkpt lat="45.25495" lon="6.03309">
        <ele>2135.4560546875</ele>
        <time>2017-01-06T10:02:57Z</time>
      </trkpt>
      <trkpt lat="45.25503" lon="6.03311">
        <ele>2132.4560546875</ele>
        <time>2017-01-06T10:03:03Z</time>
      </trkpt>
      <trkpt lat="45.25518" lon="6.03323">
        <ele>2127.4560546875</ele>
        <time>2017-01-06T10:03:09Z</time>
      </trkpt>
      <trkpt lat="45.25526" lon="6.03324">
        <ele>2129.4560546875</ele>
        <time>2017-01-06T10:03:41Z</time>
      </trkpt>
      <trkpt lat="45.25537" lon="6.03302">
        <ele>2127.4560546875</ele>
        <time>2017-01-06T10:03:46Z</time>
      </trkpt>
      <trkpt lat="45.25546" lon="6.03281">
        <ele>2123.4560546875</ele>
        <time>2017-01-06T10:03:51Z</time>
      </trkpt>
      <trkpt lat="45.25552" lon="6.03257">
        <ele>2118.4560546875</ele>
        <time>2017-01-06T10:03:56Z</time>
      </trkpt>
      <trkpt lat="45.25556" lon="6.03247">
        <ele>2114.4560546875</ele>
        <time>2017-01-06T10:03:59Z</time>
      </trkpt>
      <trkpt lat="45.25567" lon="6.03232">
        <ele>2113.4560546875</ele>
        <time>2017-01-06T10:04:09Z</time>
      </trkpt>
      <trkpt lat="45.25576" lon="6.03213">
        <ele>2111.4560546875</ele>
        <time>2017-01-06T10:04:31Z</time>
      </trkpt>
      <trkpt lat="45.25602" lon="6.03176">
        <ele>2106.4560546875</ele>
        <time>2017-01-06T10:04:37Z</time>
      </trkpt>
      <trkpt lat="45.25613" lon="6.03113">
        <ele>2104.455078125</ele>
        <time>2017-01-06T10:04:44Z</time>
      </trkpt>
      <trkpt lat="45.25616" lon="6.03102">
        <ele>2102.455078125</ele>
        <time>2017-01-06T10:04:46Z</time>
      </trkpt>
      <trkpt lat="45.25616" lon="6.03092">
        <ele>2101.455078125</ele>
        <time>2017-01-06T10:04:51Z</time>
      </trkpt>
      <trkpt lat="45.25611" lon="6.03101">
        <ele>2097.455078125</ele>
        <time>2017-01-06T10:05:35Z</time>
      </trkpt>
      <trkpt lat="45.2561" lon="6.03111">
        <ele>2096.455078125</ele>
        <time>2017-01-06T10:05:40Z</time>
      </trkpt>
      <trkpt lat="45.25609" lon="6.03122">
        <ele>2094.4560546875</ele>
        <time>2017-01-06T10:05:45Z</time>
      </trkpt>
      <trkpt lat="45.25618" lon="6.0314">
        <ele>2093.4560546875</ele>
        <time>2017-01-06T10:05:55Z</time>
      </trkpt>
      <trkpt lat="45.25639" lon="6.03163">
        <ele>2090.4560546875</ele>
        <time>2017-01-06T10:06:00Z</time>
      </trkpt>
      <trkpt lat="45.25682" lon="6.0319">
        <ele>2077.4560546875</ele>
        <time>2017-01-06T10:06:05Z</time>
      </trkpt>
      <trkpt lat="45.25695" lon="6.03185">
        <ele>2074.4560546875</ele>
        <time>2017-01-06T10:06:06Z</time>
      </trkpt>
      <trkpt lat="45.25748" lon="6.03199">
        <ele>2071.4560546875</ele>
        <time>2017-01-06T10:06:11Z</time>
      </trkpt>
      <trkpt lat="45.2577" lon="6.03202">
        <ele>2064.4560546875</ele>
        <time>2017-01-06T10:06:15Z</time>
      </trkpt>
      <trkpt lat="45.25778" lon="6.03205">
        <ele>2059.4560546875</ele>
        <time>2017-01-06T10:06:20Z</time>
      </trkpt>
      <trkpt lat="45.25789" lon="6.03205">
        <ele>2057.4560546875</ele>
        <time>2017-01-06T10:06:30Z</time>
      </trkpt>
      <trkpt lat="45.25813" lon="6.03179">
        <ele>2049.4560546875</ele>
        <time>2017-01-06T10:06:36Z</time>
      </trkpt>
      <trkpt lat="45.25819" lon="6.03133">
        <ele>2045.4560546875</ele>
        <time>2017-01-06T10:06:41Z</time>
      </trkpt>
      <trkpt lat="45.25822" lon="6.03112">
        <ele>2040.4560546875</ele>
        <time>2017-01-06T10:06:43Z</time>
      </trkpt>
      <trkpt lat="45.25863" lon="6.03095">
        <ele>2019.4560546875</ele>
        <time>2017-01-06T10:06:48Z</time>
      </trkpt>
      <trkpt lat="45.2591" lon="6.03156">
        <ele>2002.4560546875</ele>
        <time>2017-01-06T10:06:53Z</time>
      </trkpt>
      <trkpt lat="45.25964" lon="6.0319">
        <ele>1987.4560546875</ele>
        <time>2017-01-06T10:06:58Z</time>
      </trkpt>
      <trkpt lat="45.26004" lon="6.03159">
        <ele>2076.4560546875</ele>
        <time>2017-01-06T10:07:03Z</time>
      </trkpt>
      <trkpt lat="45.26029" lon="6.03081">
        <ele>2025.4560546875</ele>
        <time>2017-01-06T10:07:08Z</time>
      </trkpt>
      <trkpt lat="45.26052" lon="6.02978">
        <ele>1943.4560546875</ele>
        <time>2017-01-06T10:07:13Z</time>
      </trkpt>
      <trkpt lat="45.26058" lon="6.02944">
        <ele>1943.4560546875</ele>
        <time>2017-01-06T10:07:15Z</time>
      </trkpt>
      <trkpt lat="45.26064" lon="6.02935">
        <ele>1939.4560546875</ele>
        <time>2017-01-06T10:07:17Z</time>
      </trkpt>
      <trkpt lat="45.26068" lon="6.02921">
        <ele>1925.4560546875</ele>
        <time>2017-01-06T10:07:32Z</time>
      </trkpt>
      <trkpt lat="45.26073" lon="6.02905">
        <ele>1928.4560546875</ele>
        <time>2017-01-06T10:07:34Z</time>
      </trkpt>
      <trkpt lat="45.26081" lon="6.02872">
        <ele>1916.4560546875</ele>
        <time>2017-01-06T10:07:37Z</time>
      </trkpt>
      <trkpt lat="45.2609" lon="6.02836">
        <ele>1899.4560546875</ele>
        <time>2017-01-06T10:07:40Z</time>
      </trkpt>
      <trkpt lat="45.26087" lon="6.02756">
        <ele>1879.4560546875</ele>
        <time>2017-01-06T10:07:45Z</time>
      </trkpt>
      <trkpt lat="45.26084" lon="6.02739">
        <ele>1874.4560546875</ele>
        <time>2017-01-06T10:07:46Z</time>
      </trkpt>
      <trkpt lat="45.2611" lon="6.02674">
        <ele>1859.4560546875</ele>
        <time>2017-01-06T10:07:52Z</time>
      </trkpt>
      <trkpt lat="45.26118" lon="6.02686">
        <ele>1853.4560546875</ele>
        <time>2017-01-06T10:07:54Z</time>
      </trkpt>
      <trkpt lat="45.26146" lon="6.02719">
        <ele>1840.4560546875</ele>
        <time>2017-01-06T10:07:59Z</time>
      </trkpt>
      <trkpt lat="45.26186" lon="6.02743">
        <ele>1825.4560546875</ele>
        <time>2017-01-06T10:08:04Z</time>
      </trkpt>
      <trkpt lat="45.26219" lon="6.02776">
        <ele>1812.4560546875</ele>
        <time>2017-01-06T10:08:09Z</time>
      </trkpt>
      <trkpt lat="45.26258" lon="6.028">
        <ele>1798.4560546875</ele>
        <time>2017-01-06T10:08:14Z</time>
      </trkpt>
      <trkpt lat="45.26268" lon="6.02803">
        <ele>1819.4560546875</ele>
        <time>2017-01-06T10:08:15Z</time>
      </trkpt>
      <trkpt lat="45.2632" lon="6.02801">
        <ele>1793.4560546875</ele>
        <time>2017-01-06T10:08:20Z</time>
      </trkpt>
      <trkpt lat="45.26332" lon="6.02797">
        <ele>1787.4560546875</ele>
        <time>2017-01-06T10:08:21Z</time>
      </trkpt>
      <trkpt lat="45.2638" lon="6.02753">
        <ele>1770.45703125</ele>
        <time>2017-01-06T10:08:26Z</time>
      </trkpt>
      <trkpt lat="45.2638" lon="6.02698">
        <ele>1764.4560546875</ele>
        <time>2017-01-06T10:08:30Z</time>
      </trkpt>
      <trkpt lat="45.26377" lon="6.02661">
        <ele>1760.4560546875</ele>
        <time>2017-01-06T10:08:33Z</time>
      </trkpt>
      <trkpt lat="45.26361" lon="6.02616">
        <ele>1755.4560546875</ele>
        <time>2017-01-06T10:08:38Z</time>
      </trkpt>
      <trkpt lat="45.26348" lon="6.02593">
        <ele>1751.4560546875</ele>
        <time>2017-01-06T10:08:43Z</time>
      </trkpt>
      <trkpt lat="45.26335" lon="6.02578">
        <ele>1747.4560546875</ele>
        <time>2017-01-06T10:08:50Z</time>
      </trkpt>
      <trkpt lat="45.2632" lon="6.02568">
        <ele>1744.4560546875</ele>
        <time>2017-01-06T10:08:55Z</time>
      </trkpt>
      <trkpt lat="45.26294" lon="6.02544">
        <ele>1741.4560546875</ele>
        <time>2017-01-06T10:09:01Z</time>
      </trkpt>
      <trkpt lat="45.26285" lon="6.02532">
        <ele>1741.4560546875</ele>
        <time>2017-01-06T10:09:03Z</time>
      </trkpt>
      <trkpt lat="45.26265" lon="6.02496">
        <ele>1738.4560546875</ele>
        <time>2017-01-06T10:09:08Z</time>
      </trkpt>
      <trkpt lat="45.26239" lon="6.02452">
        <ele>1739.4560546875</ele>
        <time>2017-01-06T10:09:13Z</time>
      </trkpt>
      <trkpt lat="45.26231" lon="6.02434">
        <ele>1734.4560546875</ele>
        <time>2017-01-06T10:09:15Z</time>
      </trkpt>
      <trkpt lat="45.26216" lon="6.02377">
        <ele>1728.4560546875</ele>
        <time>2017-01-06T10:09:20Z</time>
      </trkpt>
      <trkpt lat="45.26212" lon="6.02363">
        <ele>1728.4560546875</ele>
        <time>2017-01-06T10:09:21Z</time>
      </trkpt>
      <trkpt lat="45.26196" lon="6.02302">
        <ele>1722.4560546875</ele>
        <time>2017-01-06T10:09:26Z</time>
      </trkpt>
      <trkpt lat="45.26174" lon="6.02241">
        <ele>1717.4549560547</ele>
        <time>2017-01-06T10:09:31Z</time>
      </trkpt>
      <trkpt lat="45.26157" lon="6.0218">
        <ele>1708.4549560547</ele>
        <time>2017-01-06T10:09:36Z</time>
      </trkpt>
      <trkpt lat="45.26144" lon="6.02118">
        <ele>1701.4549560547</ele>
        <time>2017-01-06T10:09:41Z</time>
      </trkpt>
      <trkpt lat="45.26133" lon="6.02064">
        <ele>1697.4549560547</ele>
        <time>2017-01-06T10:09:46Z</time>
      </trkpt>
      <trkpt lat="45.26108" lon="6.0202">
        <ele>1692.4549560547</ele>
        <time>2017-01-06T10:09:51Z</time>
      </trkpt>
      <trkpt lat="45.26074" lon="6.01975">
        <ele>1688.4549560547</ele>
        <time>2017-01-06T10:09:57Z</time>
      </trkpt>
      <trkpt lat="45.26043" lon="6.0193">
        <ele>1686.4549560547</ele>
        <time>2017-01-06T10:10:03Z</time>
      </trkpt>
      <trkpt lat="45.26029" lon="6.01917">
        <ele>1684.4549560547</ele>
        <time>2017-01-06T10:11:37Z</time>
      </trkpt>
      <trkpt lat="45.26023" lon="6.01913">
        <ele>1687.4549560547</ele>
        <time>2017-01-06T10:11:46Z</time>
      </trkpt>
      <trkpt lat="45.26015" lon="6.0191">
        <ele>1683.4549560547</ele>
        <time>2017-01-06T10:11:53Z</time>
      </trkpt>
      <trkpt lat="45.26009" lon="6.01904">
        <ele>1686.4549560547</ele>
        <time>2017-01-06T10:12:01Z</time>
      </trkpt>
      <trkpt lat="45.26002" lon="6.019">
        <ele>1686.4549560547</ele>
        <time>2017-01-06T10:12:08Z</time>
      </trkpt>
      <trkpt lat="45.25995" lon="6.01893">
        <ele>1686.4549560547</ele>
        <time>2017-01-06T10:12:16Z</time>
      </trkpt>
      <trkpt lat="45.25989" lon="6.01887">
        <ele>1690.4549560547</ele>
        <time>2017-01-06T10:12:27Z</time>
      </trkpt>
      <trkpt lat="45.25981" lon="6.01883">
        <ele>1694.4549560547</ele>
        <time>2017-01-06T10:12:39Z</time>
      </trkpt>
      <trkpt lat="45.25975" lon="6.01878">
        <ele>1696.4549560547</ele>
        <time>2017-01-06T10:12:45Z</time>
      </trkpt>
      <trkpt lat="45.2597" lon="6.01869">
        <ele>1697.4549560547</ele>
        <time>2017-01-06T10:12:52Z</time>
      </trkpt>
      <trkpt lat="45.25963" lon="6.01864">
        <ele>1686.4539794922</ele>
        <time>2017-01-06T10:12:58Z</time>
      </trkpt>
      <trkpt lat="45.25956" lon="6.0186">
        <ele>1696.4539794922</ele>
        <time>2017-01-06T10:13:06Z</time>
      </trkpt>
      <trkpt lat="45.25952" lon="6.0185">
        <ele>1700.4539794922</ele>
        <time>2017-01-06T10:13:15Z</time>
      </trkpt>
      <trkpt lat="45.25944" lon="6.01846">
        <ele>1702.4539794922</ele>
        <time>2017-01-06T10:13:24Z</time>
      </trkpt>
      <trkpt lat="45.25936" lon="6.01843">
        <ele>1702.4539794922</ele>
        <time>2017-01-06T10:13:30Z</time>
      </trkpt>
      <trkpt lat="45.25928" lon="6.01843">
        <ele>1702.4539794922</ele>
        <time>2017-01-06T10:13:36Z</time>
      </trkpt>
      <trkpt lat="45.2592" lon="6.01842">
        <ele>1706.4539794922</ele>
        <time>2017-01-06T10:13:44Z</time>
      </trkpt>
      <trkpt lat="45.25912" lon="6.01841">
        <ele>1706.4539794922</ele>
        <time>2017-01-06T10:13:52Z</time>
      </trkpt>
      <trkpt lat="45.25904" lon="6.01841">
        <ele>1705.4539794922</ele>
        <time>2017-01-06T10:14:02Z</time>
      </trkpt>
      <trkpt lat="45.25896" lon="6.01841">
        <ele>1708.4539794922</ele>
        <time>2017-01-06T10:14:11Z</time>
      </trkpt>
      <trkpt lat="45.25887" lon="6.01843">
        <ele>1712.4539794922</ele>
        <time>2017-01-06T10:14:20Z</time>
      </trkpt>
      <trkpt lat="45.2588" lon="6.01848">
        <ele>1715.4539794922</ele>
        <time>2017-01-06T10:14:34Z</time>
      </trkpt>
      <trkpt lat="45.25873" lon="6.01853">
        <ele>1720.4539794922</ele>
        <time>2017-01-06T10:15:15Z</time>
      </trkpt>
      <trkpt lat="45.25865" lon="6.01857">
        <ele>1722.4539794922</ele>
        <time>2017-01-06T10:15:26Z</time>
      </trkpt>
      <trkpt lat="45.2586" lon="6.01865">
        <ele>1725.4539794922</ele>
        <time>2017-01-06T10:15:50Z</time>
      </trkpt>
      <trkpt lat="45.25858" lon="6.01876">
        <ele>1726.4539794922</ele>
        <time>2017-01-06T10:15:59Z</time>
      </trkpt>
      <trkpt lat="45.25862" lon="6.01886">
        <ele>1727.4539794922</ele>
        <time>2017-01-06T10:16:06Z</time>
      </trkpt>
      <trkpt lat="45.25864" lon="6.01897">
        <ele>1727.4539794922</ele>
        <time>2017-01-06T10:16:19Z</time>
      </trkpt>
      <trkpt lat="45.25863" lon="6.01908">
        <ele>1734.4539794922</ele>
        <time>2017-01-06T10:16:34Z</time>
      </trkpt>
      <trkpt lat="45.25859" lon="6.01917">
        <ele>1736.4539794922</ele>
        <time>2017-01-06T10:16:46Z</time>
      </trkpt>
      <trkpt lat="45.25853" lon="6.01923">
        <ele>1738.4539794922</ele>
        <time>2017-01-06T10:16:56Z</time>
      </trkpt>
      <trkpt lat="45.25847" lon="6.0193">
        <ele>1740.4539794922</ele>
        <time>2017-01-06T10:17:08Z</time>
      </trkpt>
      <trkpt lat="45.25839" lon="6.01933">
        <ele>1742.4539794922</ele>
        <time>2017-01-06T10:17:14Z</time>
      </trkpt>
      <trkpt lat="45.25832" lon="6.01936">
        <ele>1743.4539794922</ele>
        <time>2017-01-06T10:17:23Z</time>
      </trkpt>
      <trkpt lat="45.25825" lon="6.01941">
        <ele>1743.4539794922</ele>
        <time>2017-01-06T10:17:33Z</time>
      </trkpt>
      <trkpt lat="45.25816" lon="6.01943">
        <ele>1745.4539794922</ele>
        <time>2017-01-06T10:17:44Z</time>
      </trkpt>
      <trkpt lat="45.25809" lon="6.01944">
        <ele>1745.4539794922</ele>
        <time>2017-01-06T10:17:54Z</time>
      </trkpt>
      <trkpt lat="45.25802" lon="6.01948">
        <ele>1748.4539794922</ele>
        <time>2017-01-06T10:18:06Z</time>
      </trkpt>
      <trkpt lat="45.25796" lon="6.01954">
        <ele>1750.4539794922</ele>
        <time>2017-01-06T10:18:14Z</time>
      </trkpt>
      <trkpt lat="45.2579" lon="6.0196">
        <ele>1752.4539794922</ele>
        <time>2017-01-06T10:18:25Z</time>
      </trkpt>
      <trkpt lat="45.25785" lon="6.01969">
        <ele>1754.4539794922</ele>
        <time>2017-01-06T10:18:35Z</time>
      </trkpt>
      <trkpt lat="45.25779" lon="6.01977">
        <ele>1756.4539794922</ele>
        <time>2017-01-06T10:18:45Z</time>
      </trkpt>
      <trkpt lat="45.25775" lon="6.01985">
        <ele>1755.4539794922</ele>
        <time>2017-01-06T10:18:56Z</time>
      </trkpt>
      <trkpt lat="45.25769" lon="6.01991">
        <ele>1761.4539794922</ele>
        <time>2017-01-06T10:19:10Z</time>
      </trkpt>
      <trkpt lat="45.25763" lon="6.01999">
        <ele>1763.4539794922</ele>
        <time>2017-01-06T10:19:19Z</time>
      </trkpt>
      <trkpt lat="45.25756" lon="6.02004">
        <ele>1767.4539794922</ele>
        <time>2017-01-06T10:19:39Z</time>
      </trkpt>
      <trkpt lat="45.25749" lon="6.02008">
        <ele>1768.4539794922</ele>
        <time>2017-01-06T10:19:45Z</time>
      </trkpt>
      <trkpt lat="45.25736" lon="6.02017">
        <ele>1771.4539794922</ele>
        <time>2017-01-06T10:20:00Z</time>
      </trkpt>
      <trkpt lat="45.2573" lon="6.02025">
        <ele>1774.4539794922</ele>
        <time>2017-01-06T10:20:15Z</time>
      </trkpt>
      <trkpt lat="45.25725" lon="6.02033">
        <ele>1779.4539794922</ele>
        <time>2017-01-06T10:22:58Z</time>
      </trkpt>
      <trkpt lat="45.25721" lon="6.02042">
        <ele>1780.4539794922</ele>
        <time>2017-01-06T10:23:07Z</time>
      </trkpt>
      <trkpt lat="45.25715" lon="6.0205">
        <ele>1783.4539794922</ele>
        <time>2017-01-06T10:23:46Z</time>
      </trkpt>
      <trkpt lat="45.2571" lon="6.02058">
        <ele>1782.4539794922</ele>
        <time>2017-01-06T10:23:54Z</time>
      </trkpt>
      <trkpt lat="45.25705" lon="6.02066">
        <ele>1786.4539794922</ele>
        <time>2017-01-06T10:24:23Z</time>
      </trkpt>
      <trkpt lat="45.257" lon="6.02075">
        <ele>1791.4539794922</ele>
        <time>2017-01-06T10:24:31Z</time>
      </trkpt>
      <trkpt lat="45.25696" lon="6.02083">
        <ele>1796.4539794922</ele>
        <time>2017-01-06T10:24:40Z</time>
      </trkpt>
      <trkpt lat="45.25694" lon="6.02094">
        <ele>1796.4539794922</ele>
        <time>2017-01-06T10:24:52Z</time>
      </trkpt>
      <trkpt lat="45.25689" lon="6.02102">
        <ele>1797.4539794922</ele>
        <time>2017-01-06T10:25:02Z</time>
      </trkpt>
      <trkpt lat="45.25685" lon="6.02111">
        <ele>1802.4539794922</ele>
        <time>2017-01-06T10:25:12Z</time>
      </trkpt>
      <trkpt lat="45.2569" lon="6.02118">
        <ele>1802.4539794922</ele>
        <time>2017-01-06T10:27:41Z</time>
      </trkpt>
      <trkpt lat="45.25699" lon="6.02118">
        <ele>1805.4539794922</ele>
        <time>2017-01-06T10:27:48Z</time>
      </trkpt>
      <trkpt lat="45.25707" lon="6.02119">
        <ele>1804.4539794922</ele>
        <time>2017-01-06T10:27:56Z</time>
      </trkpt>
      <trkpt lat="45.25714" lon="6.02122">
        <ele>1806.4539794922</ele>
        <time>2017-01-06T10:28:05Z</time>
      </trkpt>
      <trkpt lat="45.25721" lon="6.0212">
        <ele>1809.4539794922</ele>
        <time>2017-01-06T10:28:13Z</time>
      </trkpt>
      <trkpt lat="45.25729" lon="6.02119">
        <ele>1815.4539794922</ele>
        <time>2017-01-06T10:28:19Z</time>
      </trkpt>
      <trkpt lat="45.25736" lon="6.02117">
        <ele>1818.4539794922</ele>
        <time>2017-01-06T10:28:28Z</time>
      </trkpt>
      <trkpt lat="45.25744" lon="6.02121">
        <ele>1817.4539794922</ele>
        <time>2017-01-06T10:28:42Z</time>
      </trkpt>
      <trkpt lat="45.25751" lon="6.02124">
        <ele>1816.4539794922</ele>
        <time>2017-01-06T10:28:50Z</time>
      </trkpt>
      <trkpt lat="45.25759" lon="6.02125">
        <ele>1816.4539794922</ele>
        <time>2017-01-06T10:28:57Z</time>
      </trkpt>
      <trkpt lat="45.25767" lon="6.02127">
        <ele>1816.4539794922</ele>
        <time>2017-01-06T10:29:06Z</time>
      </trkpt>
      <trkpt lat="45.25775" lon="6.02128">
        <ele>1819.4539794922</ele>
        <time>2017-01-06T10:29:13Z</time>
      </trkpt>
      <trkpt lat="45.25783" lon="6.02128">
        <ele>1821.4539794922</ele>
        <time>2017-01-06T10:29:20Z</time>
      </trkpt>
      <trkpt lat="45.25791" lon="6.02129">
        <ele>1822.4549560547</ele>
        <time>2017-01-06T10:29:30Z</time>
      </trkpt>
      <trkpt lat="45.25798" lon="6.02135">
        <ele>1823.4549560547</ele>
        <time>2017-01-06T10:29:39Z</time>
      </trkpt>
      <trkpt lat="45.25805" lon="6.0214">
        <ele>1821.4549560547</ele>
        <time>2017-01-06T10:29:45Z</time>
      </trkpt>
      <trkpt lat="45.25811" lon="6.02145">
        <ele>1824.4549560547</ele>
        <time>2017-01-06T10:29:52Z</time>
      </trkpt>
      <trkpt lat="45.25817" lon="6.02151">
        <ele>1828.4549560547</ele>
        <time>2017-01-06T10:30:02Z</time>
      </trkpt>
      <trkpt lat="45.25823" lon="6.02158">
        <ele>1829.4549560547</ele>
        <time>2017-01-06T10:30:09Z</time>
      </trkpt>
      <trkpt lat="45.25829" lon="6.02163">
        <ele>1828.4549560547</ele>
        <time>2017-01-06T10:30:15Z</time>
      </trkpt>
      <trkpt lat="45.25834" lon="6.02171">
        <ele>1830.4549560547</ele>
        <time>2017-01-06T10:30:23Z</time>
      </trkpt>
      <trkpt lat="45.2584" lon="6.02177">
        <ele>1829.4549560547</ele>
        <time>2017-01-06T10:30:30Z</time>
      </trkpt>
      <trkpt lat="45.25844" lon="6.02186">
        <ele>1833.4549560547</ele>
        <time>2017-01-06T10:30:42Z</time>
      </trkpt>
      <trkpt lat="45.25851" lon="6.02192">
        <ele>1834.4549560547</ele>
        <time>2017-01-06T10:30:50Z</time>
      </trkpt>
      <trkpt lat="45.25857" lon="6.02199">
        <ele>1838.4549560547</ele>
        <time>2017-01-06T10:30:56Z</time>
      </trkpt>
      <trkpt lat="45.25863" lon="6.02207">
        <ele>1838.4549560547</ele>
        <time>2017-01-06T10:31:05Z</time>
      </trkpt>
      <trkpt lat="45.2587" lon="6.02214">
        <ele>1838.4549560547</ele>
        <time>2017-01-06T10:31:12Z</time>
      </trkpt>
      <trkpt lat="45.25874" lon="6.02224">
        <ele>1839.4549560547</ele>
        <time>2017-01-06T10:31:19Z</time>
      </trkpt>
      <trkpt lat="45.25879" lon="6.02232">
        <ele>1840.4549560547</ele>
        <time>2017-01-06T10:31:27Z</time>
      </trkpt>
      <trkpt lat="45.25885" lon="6.02239">
        <ele>1842.4549560547</ele>
        <time>2017-01-06T10:31:34Z</time>
      </trkpt>
      <trkpt lat="45.25891" lon="6.02249">
        <ele>1846.4549560547</ele>
        <time>2017-01-06T10:31:42Z</time>
      </trkpt>
      <trkpt lat="45.25896" lon="6.02258">
        <ele>1849.4549560547</ele>
        <time>2017-01-06T10:31:53Z</time>
      </trkpt>
      <trkpt lat="45.25891" lon="6.02266">
        <ele>1849.4549560547</ele>
        <time>2017-01-06T10:32:02Z</time>
      </trkpt>
      <trkpt lat="45.25883" lon="6.02268">
        <ele>1850.4549560547</ele>
        <time>2017-01-06T10:32:10Z</time>
      </trkpt>
      <trkpt lat="45.25877" lon="6.02263">
        <ele>1852.4549560547</ele>
        <time>2017-01-06T10:32:17Z</time>
      </trkpt>
      <trkpt lat="45.25869" lon="6.02258">
        <ele>1853.4549560547</ele>
        <time>2017-01-06T10:32:23Z</time>
      </trkpt>
      <trkpt lat="45.25861" lon="6.02256">
        <ele>1854.4549560547</ele>
        <time>2017-01-06T10:32:31Z</time>
      </trkpt>
      <trkpt lat="45.25854" lon="6.02254">
        <ele>1855.4549560547</ele>
        <time>2017-01-06T10:32:37Z</time>
      </trkpt>
      <trkpt lat="45.25846" lon="6.02253">
        <ele>1857.4549560547</ele>
        <time>2017-01-06T10:32:47Z</time>
      </trkpt>
      <trkpt lat="45.25838" lon="6.02253">
        <ele>1860.4549560547</ele>
        <time>2017-01-06T10:32:55Z</time>
      </trkpt>
      <trkpt lat="45.25831" lon="6.0225">
        <ele>1861.4549560547</ele>
        <time>2017-01-06T10:33:01Z</time>
      </trkpt>
      <trkpt lat="45.25824" lon="6.02253">
        <ele>1861.4549560547</ele>
        <time>2017-01-06T10:33:12Z</time>
      </trkpt>
      <trkpt lat="45.25816" lon="6.02253">
        <ele>1865.4549560547</ele>
        <time>2017-01-06T10:33:17Z</time>
      </trkpt>
      <trkpt lat="45.25807" lon="6.02256">
        <ele>1867.4549560547</ele>
        <time>2017-01-06T10:33:28Z</time>
      </trkpt>
      <trkpt lat="45.258" lon="6.02256">
        <ele>1869.4549560547</ele>
        <time>2017-01-06T10:33:34Z</time>
      </trkpt>
      <trkpt lat="45.25792" lon="6.02257">
        <ele>1872.4549560547</ele>
        <time>2017-01-06T10:33:42Z</time>
      </trkpt>
      <trkpt lat="45.25785" lon="6.02257">
        <ele>1875.4549560547</ele>
        <time>2017-01-06T10:33:51Z</time>
      </trkpt>
      <trkpt lat="45.25777" lon="6.0226">
        <ele>1875.4549560547</ele>
        <time>2017-01-06T10:34:04Z</time>
      </trkpt>
      <trkpt lat="45.2577" lon="6.02259">
        <ele>1875.4549560547</ele>
        <time>2017-01-06T10:34:11Z</time>
      </trkpt>
      <trkpt lat="45.25763" lon="6.02259">
        <ele>1879.4549560547</ele>
        <time>2017-01-06T10:34:21Z</time>
      </trkpt>
      <trkpt lat="45.25755" lon="6.02259">
        <ele>1880.4549560547</ele>
        <time>2017-01-06T10:34:29Z</time>
      </trkpt>
      <trkpt lat="45.25747" lon="6.02261">
        <ele>1883.4549560547</ele>
        <time>2017-01-06T10:34:35Z</time>
      </trkpt>
      <trkpt lat="45.25738" lon="6.02264">
        <ele>1883.4549560547</ele>
        <time>2017-01-06T10:34:45Z</time>
      </trkpt>
      <trkpt lat="45.25731" lon="6.02265">
        <ele>1882.4549560547</ele>
        <time>2017-01-06T10:34:50Z</time>
      </trkpt>
      <trkpt lat="45.25723" lon="6.02269">
        <ele>1884.4549560547</ele>
        <time>2017-01-06T10:34:57Z</time>
      </trkpt>
      <trkpt lat="45.25716" lon="6.02273">
        <ele>1886.4549560547</ele>
        <time>2017-01-06T10:35:03Z</time>
      </trkpt>
      <trkpt lat="45.25709" lon="6.02277">
        <ele>1886.4549560547</ele>
        <time>2017-01-06T10:35:10Z</time>
      </trkpt>
      <trkpt lat="45.25704" lon="6.02287">
        <ele>1885.4549560547</ele>
        <time>2017-01-06T10:35:18Z</time>
      </trkpt>
      <trkpt lat="45.25698" lon="6.02295">
        <ele>1886.4549560547</ele>
        <time>2017-01-06T10:35:24Z</time>
      </trkpt>
      <trkpt lat="45.25695" lon="6.02305">
        <ele>1885.4549560547</ele>
        <time>2017-01-06T10:35:31Z</time>
      </trkpt>
      <trkpt lat="45.25693" lon="6.02314">
        <ele>1886.4549560547</ele>
        <time>2017-01-06T10:35:39Z</time>
      </trkpt>
      <trkpt lat="45.25689" lon="6.02324">
        <ele>1889.4549560547</ele>
        <time>2017-01-06T10:35:47Z</time>
      </trkpt>
      <trkpt lat="45.25683" lon="6.02332">
        <ele>1890.4549560547</ele>
        <time>2017-01-06T10:35:54Z</time>
      </trkpt>
      <trkpt lat="45.25678" lon="6.0234">
        <ele>1893.4549560547</ele>
        <time>2017-01-06T10:36:11Z</time>
      </trkpt>
      <trkpt lat="45.25671" lon="6.02347">
        <ele>1893.4549560547</ele>
        <time>2017-01-06T10:38:36Z</time>
      </trkpt>
      <trkpt lat="45.25664" lon="6.02351">
        <ele>1860.4549560547</ele>
        <time>2017-01-06T10:38:42Z</time>
      </trkpt>
      <trkpt lat="45.25657" lon="6.02359">
        <ele>1885.4549560547</ele>
        <time>2017-01-06T10:38:50Z</time>
      </trkpt>
      <trkpt lat="45.25651" lon="6.02365">
        <ele>1892.4549560547</ele>
        <time>2017-01-06T10:38:55Z</time>
      </trkpt>
      <trkpt lat="45.25644" lon="6.0237">
        <ele>1898.4549560547</ele>
        <time>2017-01-06T10:39:22Z</time>
      </trkpt>
      <trkpt lat="45.25637" lon="6.02377">
        <ele>1899.4549560547</ele>
        <time>2017-01-06T10:39:30Z</time>
      </trkpt>
      <trkpt lat="45.2563" lon="6.02383">
        <ele>1898.4549560547</ele>
        <time>2017-01-06T10:39:35Z</time>
      </trkpt>
      <trkpt lat="45.25624" lon="6.02388">
        <ele>1896.4549560547</ele>
        <time>2017-01-06T10:39:41Z</time>
      </trkpt>
      <trkpt lat="45.25616" lon="6.02393">
        <ele>1898.4549560547</ele>
        <time>2017-01-06T10:39:47Z</time>
      </trkpt>
      <trkpt lat="45.25609" lon="6.02395">
        <ele>1899.4549560547</ele>
        <time>2017-01-06T10:39:57Z</time>
      </trkpt>
      <trkpt lat="45.25601" lon="6.02398">
        <ele>1897.4539794922</ele>
        <time>2017-01-06T10:40:05Z</time>
      </trkpt>
      <trkpt lat="45.25593" lon="6.02401">
        <ele>1898.4539794922</ele>
        <time>2017-01-06T10:40:10Z</time>
      </trkpt>
      <trkpt lat="45.25586" lon="6.02404">
        <ele>1899.4539794922</ele>
        <time>2017-01-06T10:40:18Z</time>
      </trkpt>
      <trkpt lat="45.25579" lon="6.02409">
        <ele>1826.4539794922</ele>
        <time>2017-01-06T10:40:24Z</time>
      </trkpt>
      <trkpt lat="45.25573" lon="6.02415">
        <ele>1893.4539794922</ele>
        <time>2017-01-06T10:40:34Z</time>
      </trkpt>
      <trkpt lat="45.25566" lon="6.02418">
        <ele>1894.4539794922</ele>
        <time>2017-01-06T10:40:40Z</time>
      </trkpt>
      <trkpt lat="45.25557" lon="6.0242">
        <ele>1898.4539794922</ele>
        <time>2017-01-06T10:40:45Z</time>
      </trkpt>
      <trkpt lat="45.25543" lon="6.02432">
        <ele>1902.4539794922</ele>
        <time>2017-01-06T10:40:55Z</time>
      </trkpt>
      <trkpt lat="45.25536" lon="6.02435">
        <ele>1904.4539794922</ele>
        <time>2017-01-06T10:41:04Z</time>
      </trkpt>
      <trkpt lat="45.25529" lon="6.0244">
        <ele>1903.4539794922</ele>
        <time>2017-01-06T10:41:11Z</time>
      </trkpt>
      <trkpt lat="45.25522" lon="6.02444">
        <ele>1904.4539794922</ele>
        <time>2017-01-06T10:41:16Z</time>
      </trkpt>
      <trkpt lat="45.25515" lon="6.02447">
        <ele>1904.4539794922</ele>
        <time>2017-01-06T10:41:23Z</time>
      </trkpt>
      <trkpt lat="45.25507" lon="6.02451">
        <ele>1906.4539794922</ele>
        <time>2017-01-06T10:41:28Z</time>
      </trkpt>
      <trkpt lat="45.255" lon="6.02456">
        <ele>1907.4539794922</ele>
        <time>2017-01-06T10:41:33Z</time>
      </trkpt>
      <trkpt lat="45.25493" lon="6.0246">
        <ele>1908.4539794922</ele>
        <time>2017-01-06T10:41:40Z</time>
      </trkpt>
      <trkpt lat="45.25487" lon="6.02465">
        <ele>1907.4539794922</ele>
        <time>2017-01-06T10:41:46Z</time>
      </trkpt>
      <trkpt lat="45.25481" lon="6.02473">
        <ele>1903.4539794922</ele>
        <time>2017-01-06T10:41:54Z</time>
      </trkpt>
      <trkpt lat="45.25476" lon="6.0248">
        <ele>1906.4539794922</ele>
        <time>2017-01-06T10:42:01Z</time>
      </trkpt>
      <trkpt lat="45.2547" lon="6.02485">
        <ele>1907.4539794922</ele>
        <time>2017-01-06T10:42:09Z</time>
      </trkpt>
      <trkpt lat="45.25465" lon="6.02494">
        <ele>1910.4539794922</ele>
        <time>2017-01-06T10:42:17Z</time>
      </trkpt>
      <trkpt lat="45.25459" lon="6.02503">
        <ele>1911.4539794922</ele>
        <time>2017-01-06T10:42:26Z</time>
      </trkpt>
      <trkpt lat="45.25453" lon="6.0251">
        <ele>1912.4539794922</ele>
        <time>2017-01-06T10:42:36Z</time>
      </trkpt>
      <trkpt lat="45.25449" lon="6.02519">
        <ele>1914.4539794922</ele>
        <time>2017-01-06T10:42:41Z</time>
      </trkpt>
      <trkpt lat="45.25454" lon="6.02526">
        <ele>1918.4539794922</ele>
        <time>2017-01-06T10:42:52Z</time>
      </trkpt>
      <trkpt lat="45.25461" lon="6.02529">
        <ele>1918.4539794922</ele>
        <time>2017-01-06T10:43:02Z</time>
      </trkpt>
      <trkpt lat="45.25468" lon="6.02534">
        <ele>1919.4539794922</ele>
        <time>2017-01-06T10:43:11Z</time>
      </trkpt>
      <trkpt lat="45.25473" lon="6.0254">
        <ele>1922.4539794922</ele>
        <time>2017-01-06T10:43:22Z</time>
      </trkpt>
      <trkpt lat="45.25476" lon="6.0255">
        <ele>1927.4539794922</ele>
        <time>2017-01-06T10:43:46Z</time>
      </trkpt>
      <trkpt lat="45.25484" lon="6.02554">
        <ele>1927.4539794922</ele>
        <time>2017-01-06T10:44:04Z</time>
      </trkpt>
      <trkpt lat="45.25492" lon="6.02549">
        <ele>1932.4539794922</ele>
        <time>2017-01-06T10:44:14Z</time>
      </trkpt>
      <trkpt lat="45.255" lon="6.02549">
        <ele>1935.4549560547</ele>
        <time>2017-01-06T10:44:25Z</time>
      </trkpt>
      <trkpt lat="45.25506" lon="6.02542">
        <ele>1939.4549560547</ele>
        <time>2017-01-06T10:44:36Z</time>
      </trkpt>
      <trkpt lat="45.25513" lon="6.02542">
        <ele>1940.4549560547</ele>
        <time>2017-01-06T10:44:45Z</time>
      </trkpt>
      <trkpt lat="45.2552" lon="6.02537">
        <ele>1941.4549560547</ele>
        <time>2017-01-06T10:44:57Z</time>
      </trkpt>
      <trkpt lat="45.25527" lon="6.02536">
        <ele>1945.4549560547</ele>
        <time>2017-01-06T10:45:16Z</time>
      </trkpt>
      <trkpt lat="45.25533" lon="6.0253">
        <ele>1948.4549560547</ele>
        <time>2017-01-06T10:45:27Z</time>
      </trkpt>
      <trkpt lat="45.2554" lon="6.02526">
        <ele>1949.4549560547</ele>
        <time>2017-01-06T10:45:37Z</time>
      </trkpt>
      <trkpt lat="45.25547" lon="6.02521">
        <ele>1951.4549560547</ele>
        <time>2017-01-06T10:45:49Z</time>
      </trkpt>
      <trkpt lat="45.25554" lon="6.02517">
        <ele>1951.4549560547</ele>
        <time>2017-01-06T10:46:04Z</time>
      </trkpt>
      <trkpt lat="45.25561" lon="6.02514">
        <ele>1954.4549560547</ele>
        <time>2017-01-06T10:46:16Z</time>
      </trkpt>
      <trkpt lat="45.25566" lon="6.02506">
        <ele>1957.4549560547</ele>
        <time>2017-01-06T10:46:39Z</time>
      </trkpt>
      <trkpt lat="45.25574" lon="6.02505">
        <ele>1961.4549560547</ele>
        <time>2017-01-06T10:46:52Z</time>
      </trkpt>
      <trkpt lat="45.25581" lon="6.02508">
        <ele>1965.4549560547</ele>
        <time>2017-01-06T10:47:08Z</time>
      </trkpt>
      <trkpt lat="45.25588" lon="6.02512">
        <ele>1966.4549560547</ele>
        <time>2017-01-06T10:47:31Z</time>
      </trkpt>
      <trkpt lat="45.25595" lon="6.02512">
        <ele>1969.4549560547</ele>
        <time>2017-01-06T10:47:55Z</time>
      </trkpt>
      <trkpt lat="45.25602" lon="6.02511">
        <ele>1973.4549560547</ele>
        <time>2017-01-06T10:48:14Z</time>
      </trkpt>
      <trkpt lat="45.25595" lon="6.02518">
        <ele>1975.4549560547</ele>
        <time>2017-01-06T10:48:43Z</time>
      </trkpt>
      <trkpt lat="45.2559" lon="6.02526">
        <ele>1977.4549560547</ele>
        <time>2017-01-06T10:48:51Z</time>
      </trkpt>
      <trkpt lat="45.25589" lon="6.02536">
        <ele>1982.4549560547</ele>
        <time>2017-01-06T10:50:35Z</time>
      </trkpt>
      <trkpt lat="45.25595" lon="6.0254">
        <ele>1987.4549560547</ele>
        <time>2017-01-06T10:51:12Z</time>
      </trkpt>
      <trkpt lat="45.25601" lon="6.02547">
        <ele>1991.4549560547</ele>
        <time>2017-01-06T10:52:07Z</time>
      </trkpt>
      <trkpt lat="45.25603" lon="6.02559">
        <ele>1999.4549560547</ele>
        <time>2017-01-06T10:52:52Z</time>
      </trkpt>
      <trkpt lat="45.25603" lon="6.0257">
        <ele>1996.4549560547</ele>
        <time>2017-01-06T10:53:25Z</time>
      </trkpt>
      <trkpt lat="45.25605" lon="6.0258">
        <ele>2005.4549560547</ele>
        <time>2017-01-06T10:54:00Z</time>
      </trkpt>
      <trkpt lat="45.25605" lon="6.0259">
        <ele>2007.4549560547</ele>
        <time>2017-01-06T10:54:25Z</time>
      </trkpt>
      <trkpt lat="45.25603" lon="6.02601">
        <ele>2014.4549560547</ele>
        <time>2017-01-06T10:54:48Z</time>
      </trkpt>
      <trkpt lat="45.2561" lon="6.02604">
        <ele>2023.4549560547</ele>
        <time>2017-01-06T10:55:24Z</time>
      </trkpt>
      <trkpt lat="45.25612" lon="6.02614">
        <ele>2029.4549560547</ele>
        <time>2017-01-06T10:55:50Z</time>
      </trkpt>
      <trkpt lat="45.25612" lon="6.02626">
        <ele>2027.4549560547</ele>
        <time>2017-01-06T10:56:23Z</time>
      </trkpt>
      <trkpt lat="45.25607" lon="6.02634">
        <ele>2028.4549560547</ele>
        <time>2017-01-06T10:56:28Z</time>
      </trkpt>
      <trkpt lat="45.25612" lon="6.02643">
        <ele>2026.4549560547</ele>
        <time>2017-01-06T10:56:39Z</time>
      </trkpt>
      <trkpt lat="45.2561" lon="6.02653">
        <ele>2033.4549560547</ele>
        <time>2017-01-06T10:56:55Z</time>
      </trkpt>
      <trkpt lat="45.25616" lon="6.0266">
        <ele>2035.4549560547</ele>
        <time>2017-01-06T10:57:18Z</time>
      </trkpt>
      <trkpt lat="45.25624" lon="6.02664">
        <ele>2039.4549560547</ele>
        <time>2017-01-06T10:57:34Z</time>
      </trkpt>
      <trkpt lat="45.25631" lon="6.02668">
        <ele>2046.4549560547</ele>
        <time>2017-01-06T10:57:50Z</time>
      </trkpt>
      <trkpt lat="45.25638" lon="6.02668">
        <ele>2044.4549560547</ele>
        <time>2017-01-06T10:58:04Z</time>
      </trkpt>
      <trkpt lat="45.25645" lon="6.02673">
        <ele>2050.455078125</ele>
        <time>2017-01-06T10:58:16Z</time>
      </trkpt>
      <trkpt lat="45.25648" lon="6.02684">
        <ele>2053.455078125</ele>
        <time>2017-01-06T10:58:25Z</time>
      </trkpt>
      <trkpt lat="45.25648" lon="6.02695">
        <ele>2055.455078125</ele>
        <time>2017-01-06T10:58:37Z</time>
      </trkpt>
      <trkpt lat="45.25652" lon="6.02704">
        <ele>2056.455078125</ele>
        <time>2017-01-06T10:58:46Z</time>
      </trkpt>
      <trkpt lat="45.25657" lon="6.02711">
        <ele>2063.455078125</ele>
        <time>2017-01-06T10:59:00Z</time>
      </trkpt>
      <trkpt lat="45.25663" lon="6.02705">
        <ele>2066.455078125</ele>
        <time>2017-01-06T10:59:15Z</time>
      </trkpt>
      <trkpt lat="45.2567" lon="6.02701">
        <ele>2067.455078125</ele>
        <time>2017-01-06T10:59:29Z</time>
      </trkpt>
      <trkpt lat="45.25677" lon="6.027">
        <ele>2069.455078125</ele>
        <time>2017-01-06T10:59:39Z</time>
      </trkpt>
      <trkpt lat="45.25681" lon="6.02709">
        <ele>2078.455078125</ele>
        <time>2017-01-06T11:02:31Z</time>
      </trkpt>
      <trkpt lat="45.2569" lon="6.02715">
        <ele>2076.455078125</ele>
        <time>2017-01-06T11:02:44Z</time>
      </trkpt>
      <trkpt lat="45.25696" lon="6.02725">
        <ele>2073.455078125</ele>
        <time>2017-01-06T11:02:49Z</time>
      </trkpt>
      <trkpt lat="45.25699" lon="6.02734">
        <ele>2077.455078125</ele>
        <time>2017-01-06T11:03:00Z</time>
      </trkpt>
      <trkpt lat="45.25703" lon="6.02744">
        <ele>2080.455078125</ele>
        <time>2017-01-06T11:03:18Z</time>
      </trkpt>
      <trkpt lat="45.25704" lon="6.02754">
        <ele>2081.455078125</ele>
        <time>2017-01-06T11:03:29Z</time>
      </trkpt>
      <trkpt lat="45.25705" lon="6.02765">
        <ele>2083.455078125</ele>
        <time>2017-01-06T11:03:37Z</time>
      </trkpt>
      <trkpt lat="45.25707" lon="6.02775">
        <ele>2083.455078125</ele>
        <time>2017-01-06T11:03:43Z</time>
      </trkpt>
      <trkpt lat="45.25709" lon="6.02787">
        <ele>2084.455078125</ele>
        <time>2017-01-06T11:03:52Z</time>
      </trkpt>
      <trkpt lat="45.25706" lon="6.02798">
        <ele>2087.455078125</ele>
        <time>2017-01-06T11:04:00Z</time>
      </trkpt>
      <trkpt lat="45.25706" lon="6.02809">
        <ele>2090.455078125</ele>
        <time>2017-01-06T11:04:08Z</time>
      </trkpt>
      <trkpt lat="45.25702" lon="6.02819">
        <ele>2094.455078125</ele>
        <time>2017-01-06T11:04:13Z</time>
      </trkpt>
      <trkpt lat="45.25703" lon="6.02829">
        <ele>2099.455078125</ele>
        <time>2017-01-06T11:04:21Z</time>
      </trkpt>
      <trkpt lat="45.25705" lon="6.0284">
        <ele>2093.455078125</ele>
        <time>2017-01-06T11:04:33Z</time>
      </trkpt>
      <trkpt lat="45.25704" lon="6.02852">
        <ele>2095.455078125</ele>
        <time>2017-01-06T11:04:46Z</time>
      </trkpt>
      <trkpt lat="45.25701" lon="6.02862">
        <ele>2097.455078125</ele>
        <time>2017-01-06T11:04:54Z</time>
      </trkpt>
      <trkpt lat="45.257" lon="6.02873">
        <ele>2097.455078125</ele>
        <time>2017-01-06T11:05:03Z</time>
      </trkpt>
      <trkpt lat="45.25698" lon="6.02883">
        <ele>2097.455078125</ele>
        <time>2017-01-06T11:05:12Z</time>
      </trkpt>
      <trkpt lat="45.25695" lon="6.02893">
        <ele>2102.455078125</ele>
        <time>2017-01-06T11:05:26Z</time>
      </trkpt>
      <trkpt lat="45.25692" lon="6.02903">
        <ele>2104.455078125</ele>
        <time>2017-01-06T11:05:35Z</time>
      </trkpt>
      <trkpt lat="45.25692" lon="6.02914">
        <ele>2109.455078125</ele>
        <time>2017-01-06T11:05:49Z</time>
      </trkpt>
      <trkpt lat="45.25697" lon="6.02924">
        <ele>2108.455078125</ele>
        <time>2017-01-06T11:06:06Z</time>
      </trkpt>
      <trkpt lat="45.25697" lon="6.02935">
        <ele>2110.455078125</ele>
        <time>2017-01-06T11:06:13Z</time>
      </trkpt>
      <trkpt lat="45.25699" lon="6.02946">
        <ele>2109.455078125</ele>
        <time>2017-01-06T11:06:22Z</time>
      </trkpt>
      <trkpt lat="45.25698" lon="6.02956">
        <ele>2111.455078125</ele>
        <time>2017-01-06T11:06:28Z</time>
      </trkpt>
      <trkpt lat="45.25697" lon="6.02967">
        <ele>2115.455078125</ele>
        <time>2017-01-06T11:06:36Z</time>
      </trkpt>
      <trkpt lat="45.25697" lon="6.02979">
        <ele>2117.455078125</ele>
        <time>2017-01-06T11:06:46Z</time>
      </trkpt>
      <trkpt lat="45.25694" lon="6.02992">
        <ele>2119.455078125</ele>
        <time>2017-01-06T11:06:51Z</time>
      </trkpt>
      <trkpt lat="45.25697" lon="6.03002">
        <ele>2117.4560546875</ele>
        <time>2017-01-06T11:06:58Z</time>
      </trkpt>
      <trkpt lat="45.25695" lon="6.03012">
        <ele>2119.4560546875</ele>
        <time>2017-01-06T11:07:06Z</time>
      </trkpt>
      <trkpt lat="45.25695" lon="6.03023">
        <ele>2119.4560546875</ele>
        <time>2017-01-06T11:07:15Z</time>
      </trkpt>
      <trkpt lat="45.25693" lon="6.03034">
        <ele>2119.4560546875</ele>
        <time>2017-01-06T11:07:22Z</time>
      </trkpt>
      <trkpt lat="45.25693" lon="6.03044">
        <ele>2117.4560546875</ele>
        <time>2017-01-06T11:07:28Z</time>
      </trkpt>
      <trkpt lat="45.25689" lon="6.03054">
        <ele>2120.4560546875</ele>
        <time>2017-01-06T11:07:36Z</time>
      </trkpt>
      <trkpt lat="45.25689" lon="6.03065">
        <ele>2121.4560546875</ele>
        <time>2017-01-06T11:07:42Z</time>
      </trkpt>
      <trkpt lat="45.2569" lon="6.03075">
        <ele>2121.4560546875</ele>
        <time>2017-01-06T11:07:48Z</time>
      </trkpt>
      <trkpt lat="45.25691" lon="6.03086">
        <ele>2123.4560546875</ele>
        <time>2017-01-06T11:07:53Z</time>
      </trkpt>
      <trkpt lat="45.25694" lon="6.03096">
        <ele>2123.4560546875</ele>
        <time>2017-01-06T11:08:00Z</time>
      </trkpt>
      <trkpt lat="45.25686" lon="6.03103">
        <ele>2126.4560546875</ele>
        <time>2017-01-06T11:11:46Z</time>
      </trkpt>
      <trkpt lat="45.25677" lon="6.03106">
        <ele>2126.4560546875</ele>
        <time>2017-01-06T11:11:48Z</time>
      </trkpt>
      <trkpt lat="45.25639" lon="6.0311">
        <ele>2118.4560546875</ele>
        <time>2017-01-06T11:11:53Z</time>
      </trkpt>
      <trkpt lat="45.25627" lon="6.03152">
        <ele>2105.4560546875</ele>
        <time>2017-01-06T11:11:58Z</time>
      </trkpt>
      <trkpt lat="45.25636" lon="6.03163">
        <ele>2099.4560546875</ele>
        <time>2017-01-06T11:11:59Z</time>
      </trkpt>
      <trkpt lat="45.25703" lon="6.03186">
        <ele>2081.4560546875</ele>
        <time>2017-01-06T11:12:04Z</time>
      </trkpt>
      <trkpt lat="45.25718" lon="6.03191">
        <ele>2076.4560546875</ele>
        <time>2017-01-06T11:12:05Z</time>
      </trkpt>
      <trkpt lat="45.25789" lon="6.032">
        <ele>2064.4560546875</ele>
        <time>2017-01-06T11:12:10Z</time>
      </trkpt>
      <trkpt lat="45.25816" lon="6.03193">
        <ele>2054.4560546875</ele>
        <time>2017-01-06T11:12:16Z</time>
      </trkpt>
      <trkpt lat="45.25818" lon="6.0318">
        <ele>2051.4560546875</ele>
        <time>2017-01-06T11:12:24Z</time>
      </trkpt>
      <trkpt lat="45.25827" lon="6.03109">
        <ele>2040.4560546875</ele>
        <time>2017-01-06T11:12:29Z</time>
      </trkpt>
      <trkpt lat="45.2588" lon="6.03097">
        <ele>2031.4560546875</ele>
        <time>2017-01-06T11:12:34Z</time>
      </trkpt>
      <trkpt lat="45.25956" lon="6.0318">
        <ele>2014.4560546875</ele>
        <time>2017-01-06T11:12:39Z</time>
      </trkpt>
      <trkpt lat="45.2597" lon="6.03193">
        <ele>2008.4560546875</ele>
        <time>2017-01-06T11:12:40Z</time>
      </trkpt>
      <trkpt lat="45.26018" lon="6.03188">
        <ele>1984.4560546875</ele>
        <time>2017-01-06T11:12:45Z</time>
      </trkpt>
      <trkpt lat="45.2602" lon="6.03167">
        <ele>1980.4560546875</ele>
        <time>2017-01-06T11:12:46Z</time>
      </trkpt>
      <trkpt lat="45.2603" lon="6.03158">
        <ele>1973.4560546875</ele>
        <time>2017-01-06T11:12:48Z</time>
      </trkpt>
      <trkpt lat="45.26037" lon="6.03135">
        <ele>1965.4560546875</ele>
        <time>2017-01-06T11:12:53Z</time>
      </trkpt>
      <trkpt lat="45.26039" lon="6.03119">
        <ele>1962.4560546875</ele>
        <time>2017-01-06T11:12:59Z</time>
      </trkpt>
      <trkpt lat="45.26039" lon="6.03073">
        <ele>1968.4560546875</ele>
        <time>2017-01-06T11:13:02Z</time>
      </trkpt>
      <trkpt lat="45.2604" lon="6.03044">
        <ele>1955.4560546875</ele>
        <time>2017-01-06T11:13:03Z</time>
      </trkpt>
      <trkpt lat="45.26068" lon="6.02959">
        <ele>1943.4560546875</ele>
        <time>2017-01-06T11:13:08Z</time>
      </trkpt>
      <trkpt lat="45.26073" lon="6.02933">
        <ele>1936.4560546875</ele>
        <time>2017-01-06T11:13:10Z</time>
      </trkpt>
      <trkpt lat="45.2609" lon="6.02883">
        <ele>1925.4560546875</ele>
        <time>2017-01-06T11:13:15Z</time>
      </trkpt>
      <trkpt lat="45.26093" lon="6.02818">
        <ele>1917.4560546875</ele>
        <time>2017-01-06T11:13:20Z</time>
      </trkpt>
      <trkpt lat="45.26084" lon="6.0273">
        <ele>1906.4560546875</ele>
        <time>2017-01-06T11:13:25Z</time>
      </trkpt>
      <trkpt lat="45.26112" lon="6.02694">
        <ele>1891.4560546875</ele>
        <time>2017-01-06T11:13:30Z</time>
      </trkpt>
      <trkpt lat="45.26121" lon="6.02705">
        <ele>1884.4560546875</ele>
        <time>2017-01-06T11:13:33Z</time>
      </trkpt>
      <trkpt lat="45.26135" lon="6.02707">
        <ele>1874.4560546875</ele>
        <time>2017-01-06T11:13:35Z</time>
      </trkpt>
      <trkpt lat="45.26166" lon="6.02738">
        <ele>1858.4560546875</ele>
        <time>2017-01-06T11:13:40Z</time>
      </trkpt>
      <trkpt lat="45.26183" lon="6.02747">
        <ele>1849.4560546875</ele>
        <time>2017-01-06T11:13:42Z</time>
      </trkpt>
      <trkpt lat="45.26218" lon="6.0278">
        <ele>1829.4560546875</ele>
        <time>2017-01-06T11:13:47Z</time>
      </trkpt>
      <trkpt lat="45.26274" lon="6.02807">
        <ele>1816.4560546875</ele>
        <time>2017-01-06T11:13:52Z</time>
      </trkpt>
      <trkpt lat="45.26335" lon="6.02797">
        <ele>1801.4560546875</ele>
        <time>2017-01-06T11:13:57Z</time>
      </trkpt>
      <trkpt lat="45.26372" lon="6.0276">
        <ele>1793.45703125</ele>
        <time>2017-01-06T11:14:00Z</time>
      </trkpt>
      <trkpt lat="45.26375" lon="6.02739">
        <ele>1789.4560546875</ele>
        <time>2017-01-06T11:14:01Z</time>
      </trkpt>
      <trkpt lat="45.26375" lon="6.02701">
        <ele>1781.4560546875</ele>
        <time>2017-01-06T11:14:03Z</time>
      </trkpt>
      <trkpt lat="45.26353" lon="6.02616">
        <ele>1772.4560546875</ele>
        <time>2017-01-06T11:14:08Z</time>
      </trkpt>
      <trkpt lat="45.26339" lon="6.02597">
        <ele>1770.4560546875</ele>
        <time>2017-01-06T11:14:10Z</time>
      </trkpt>
      <trkpt lat="45.26297" lon="6.02555">
        <ele>1763.4560546875</ele>
        <time>2017-01-06T11:14:15Z</time>
      </trkpt>
      <trkpt lat="45.26284" lon="6.02538">
        <ele>1758.4560546875</ele>
        <time>2017-01-06T11:14:17Z</time>
      </trkpt>
      <trkpt lat="45.26253" lon="6.0249">
        <ele>1747.4560546875</ele>
        <time>2017-01-06T11:14:22Z</time>
      </trkpt>
      <trkpt lat="45.26224" lon="6.02435">
        <ele>1738.4560546875</ele>
        <time>2017-01-06T11:14:27Z</time>
      </trkpt>
      <trkpt lat="45.26209" lon="6.02373">
        <ele>1731.4560546875</ele>
        <time>2017-01-06T11:14:32Z</time>
      </trkpt>
      <trkpt lat="45.26196" lon="6.02308">
        <ele>1725.4560546875</ele>
        <time>2017-01-06T11:14:37Z</time>
      </trkpt>
      <trkpt lat="45.26177" lon="6.02254">
        <ele>1721.4549560547</ele>
        <time>2017-01-06T11:14:42Z</time>
      </trkpt>
      <trkpt lat="45.2616" lon="6.02192">
        <ele>1718.4549560547</ele>
        <time>2017-01-06T11:14:47Z</time>
      </trkpt>
      <trkpt lat="45.26151" lon="6.02132">
        <ele>1715.4549560547</ele>
        <time>2017-01-06T11:14:52Z</time>
      </trkpt>
      <trkpt lat="45.26141" lon="6.02074">
        <ele>1707.4549560547</ele>
        <time>2017-01-06T11:14:57Z</time>
      </trkpt>
      <trkpt lat="45.26134" lon="6.02068">
        <ele>1699.4549560547</ele>
        <time>2017-01-06T11:15:07Z</time>
      </trkpt>
      <trkpt lat="45.26122" lon="6.02047">
        <ele>1698.4549560547</ele>
        <time>2017-01-06T11:15:12Z</time>
      </trkpt>
      <trkpt lat="45.26098" lon="6.02006">
        <ele>1694.4549560547</ele>
        <time>2017-01-06T11:15:18Z</time>
      </trkpt>
      <trkpt lat="45.26065" lon="6.01973">
        <ele>1689.4549560547</ele>
        <time>2017-01-06T11:15:24Z</time>
      </trkpt>
      <trkpt lat="45.261" lon="6.01961">
        <ele>1686.4549560547</ele>
        <time>2017-01-06T11:15:29Z</time>
      </trkpt>
      <trkpt lat="45.26141" lon="6.0196">
        <ele>1684.4549560547</ele>
        <time>2017-01-06T11:15:34Z</time>
      </trkpt>
      <trkpt lat="45.26156" lon="6.01959">
        <ele>1681.4549560547</ele>
        <time>2017-01-06T11:15:36Z</time>
      </trkpt>
      <trkpt lat="45.26195" lon="6.01947">
        <ele>1674.4549560547</ele>
        <time>2017-01-06T11:15:42Z</time>
      </trkpt>
      <trkpt lat="45.26239" lon="6.01956">
        <ele>1665.4549560547</ele>
        <time>2017-01-06T11:15:47Z</time>
      </trkpt>
      <trkpt lat="45.26262" lon="6.01944">
        <ele>1659.4549560547</ele>
        <time>2017-01-06T11:15:50Z</time>
      </trkpt>
      <trkpt lat="45.26297" lon="6.01898">
        <ele>1649.4549560547</ele>
        <time>2017-01-06T11:15:55Z</time>
      </trkpt>
      <trkpt lat="45.26307" lon="6.01879">
        <ele>1640.4549560547</ele>
        <time>2017-01-06T11:15:57Z</time>
      </trkpt>
      <trkpt lat="45.26349" lon="6.01831">
        <ele>1625.4549560547</ele>
        <time>2017-01-06T11:16:02Z</time>
      </trkpt>
      <trkpt lat="45.26379" lon="6.01756">
        <ele>1611.4549560547</ele>
        <time>2017-01-06T11:16:07Z</time>
      </trkpt>
      <trkpt lat="45.2637" lon="6.01727">
        <ele>1602.4549560547</ele>
        <time>2017-01-06T11:16:08Z</time>
      </trkpt>
      <trkpt lat="45.26388" lon="6.01655">
        <ele>1590.4549560547</ele>
        <time>2017-01-06T11:16:12Z</time>
      </trkpt>
      <trkpt lat="45.26396" lon="6.01642">
        <ele>1588.4549560547</ele>
        <time>2017-01-06T11:16:13Z</time>
      </trkpt>
      <trkpt lat="45.26439" lon="6.01608">
        <ele>1584.4549560547</ele>
        <time>2017-01-06T11:16:17Z</time>
      </trkpt>
      <trkpt lat="45.26463" lon="6.01568">
        <ele>1579.4549560547</ele>
        <time>2017-01-06T11:16:24Z</time>
      </trkpt>
      <trkpt lat="45.26458" lon="6.01559">
        <ele>1573.4549560547</ele>
        <time>2017-01-06T11:17:07Z</time>
      </trkpt>
      <trkpt lat="45.2645" lon="6.01554">
        <ele>1575.4549560547</ele>
        <time>2017-01-06T11:17:12Z</time>
      </trkpt>
      <trkpt lat="45.26444" lon="6.01546">
        <ele>1573.4549560547</ele>
        <time>2017-01-06T11:17:17Z</time>
      </trkpt>
      <trkpt lat="45.2644" lon="6.0153">
        <ele>1571.4549560547</ele>
        <time>2017-01-06T11:17:29Z</time>
      </trkpt>
    </trkseg>
  </trk>
</gpx>